Wetterdaten: Dienstag, 15.01.2019
Datum Zeit Temp. Aussen Temp. o. S. +5cm Feuchte Auss Luftdruck Regen Sonnenschein Regendauer Solar Windben Empfang
15.01.2019 00:00 1,5 C 0,6 C 0,0 C 94 % 1018,5 hPa 0,0 l/m 0 min 0 min 0 W/m 3,2 km/h (1 Bft) 95,74 %
15.01.2019 00:02 1,5 C 0,6 C 0,0 C 94 % 1018,5 hPa 0,0 l/m 0 min 0 min 0 W/m 6,4 km/h (2 Bft) 97,06 %
15.01.2019 00:04 1,5 C 0,6 C 0,0 C 94 % 1018,5 hPa 0,0 l/m 0 min 0 min 0 W/m 9,7 km/h (2 Bft) 97,87 %
15.01.2019 00:07 1,4 C 0,6 C 0,0 C 94 % 1018,6 hPa 0,0 l/m 0 min 0 min 0 W/m 6,4 km/h (2 Bft) 96,34 %
15.01.2019 00:08 1,4 C 0,6 C 0,0 C 94 % 1018,6 hPa 0,0 l/m 0 min 0 min 0 W/m 9,7 km/h (2 Bft) 100,00 %
15.01.2019 00:10 1,4 C 0,6 C 0,0 C 94 % 1018,5 hPa 0,0 l/m 0 min 0 min 0 W/m 6,4 km/h (2 Bft) 97,83 %
15.01.2019 00:12 1,4 C 0,6 C 0,0 C 94 % 1018,5 hPa 0,0 l/m 0 min 0 min 0 W/m 3,2 km/h (1 Bft) 100,00 %
15.01.2019 00:14 1,4 C 0,6 C 0,0 C 95 % 1018,4 hPa 0,0 l/m 0 min 0 min 0 W/m 6,4 km/h (2 Bft) 100,00 %
15.01.2019 00:16 1,4 C 0,6 C 0,0 C 94 % 1018,4 hPa 0,0 l/m 0 min 0 min 0 W/m 3,2 km/h (1 Bft) 100,00 %
15.01.2019 00:18 1,4 C 0,6 C 0,0 C 94 % 1018,5 hPa 0,0 l/m 0 min 0 min 0 W/m 6,4 km/h (2 Bft) 100,00 %
15.01.2019 00:20 1,4 C 0,6 C 0,0 C 94 % 1018,4 hPa 0,0 l/m 0 min 0 min 0 W/m 6,4 km/h (2 Bft) 100,00 %
15.01.2019 00:22 1,4 C 0,6 C 0,0 C 94 % 1018,5 hPa 0,0 l/m 0 min 0 min 0 W/m 6,4 km/h (2 Bft) 100,00 %
15.01.2019 00:24 1,4 C 0,6 C 0,0 C 94 % 1018,6 hPa 0,0 l/m 0 min 0 min 0 W/m 3,2 km/h (1 Bft) 100,00 %
15.01.2019 00:26 1,3 C 0,6 C 0,0 C 94 % 1018,6 hPa 0,0 l/m 0 min 0 min 0 W/m 9,7 km/h (2 Bft) 100,00 %
15.01.2019 00:28 1,3 C 0,6 C 0,0 C 95 % 1018,5 hPa 0,0 l/m 0 min 0 min 0 W/m 3,2 km/h (1 Bft) 100,00 %
15.01.2019 00:30 1,3 C 0,6 C 0,0 C 95 % 1018,6 hPa 0,0 l/m 0 min 0 min 0 W/m 6,4 km/h (2 Bft) 100,00 %
15.01.2019 00:32 1,3 C 0,6 C 0,0 C 95 % 1018,6 hPa 0,0 l/m 0 min 0 min 0 W/m 6,4 km/h (2 Bft) 95,74 %
15.01.2019 00:34 1,3 C 0,6 C 0,0 C 95 % 1018,6 hPa 0,0 l/m 0 min 0 min 0 W/m 6,4 km/h (2 Bft) 95,65 %
15.01.2019 00:36 1,3 C 0,6 C 0,6 C 95 % 1018,7 hPa 0,0 l/m 0 min 0 min 0 W/m 6,4 km/h (2 Bft) 100,00 %
15.01.2019 00:38 1,3 C 1,1 C 0,6 C 95 % 1018,6 hPa 0,0 l/m 0 min 0 min 0 W/m 3,2 km/h (1 Bft) 100,00 %
15.01.2019 00:40 1,3 C 1,1 C 0,6 C 95 % 1018,7 hPa 0,0 l/m 0 min 0 min 0 W/m 6,4 km/h (2 Bft) 100,00 %
15.01.2019 00:42 1,3 C 1,1 C 0,6 C 95 % 1018,5 hPa 0,0 l/m 0 min 0 min 0 W/m 9,7 km/h (2 Bft) 93,62 %
15.01.2019 00:44 1,3 C 1,1 C 0,6 C 95 % 1018,5 hPa 0,0 l/m 0 min 0 min 0 W/m 6,4 km/h (2 Bft) 100,00 %
15.01.2019 00:46 1,4 C 1,1 C 0,6 C 95 % 1018,5 hPa 0,0 l/m 0 min 0 min 0 W/m 3,2 km/h (1 Bft) 100,00 %
15.01.2019 00:48 1,4 C 1,1 C 0,6 C 95 % 1018,7 hPa 0,0 l/m 0 min 0 min 0 W/m 6,4 km/h (2 Bft) 97,87 %
15.01.2019 00:50 1,4 C 1,1 C 0,6 C 95 % 1018,7 hPa 0,0 l/m 0 min 0 min 0 W/m 6,4 km/h (2 Bft) 97,87 %
15.01.2019 00:52 1,4 C 1,1 C 0,6 C 95 % 1018,6 hPa 0,0 l/m 0 min 0 min 0 W/m 6,4 km/h (2 Bft) 97,87 %
15.01.2019 00:54 1,4 C 1,1 C 0,6 C 95 % 1018,6 hPa 0,0 l/m 0 min 0 min 0 W/m 6,4 km/h (2 Bft) 97,87 %
15.01.2019 00:56 1,4 C 1,1 C 0,6 C 95 % 1018,5 hPa 0,0 l/m 0 min 0 min 0 W/m 3,2 km/h (1 Bft) 97,87 %
15.01.2019 00:58 1,4 C 0,6 C 0,6 C 95 % 1018,6 hPa 0,0 l/m 0 min 0 min 0 W/m 6,4 km/h (2 Bft) 97,83 %
15.01.2019 01:00 1,4 C 0,6 C 0,6 C 95 % 1018,5 hPa 0,0 l/m 0 min 0 min 0 W/m 6,4 km/h (2 Bft) 93,62 %
15.01.2019 01:02 1,4 C 0,6 C 0,6 C 95 % 1018,5 hPa 0,0 l/m 0 min 0 min 0 W/m 6,4 km/h (2 Bft) 97,87 %
15.01.2019 01:04 1,4 C 0,6 C 0,6 C 95 % 1018,5 hPa 0,0 l/m 0 min 0 min 0 W/m 6,4 km/h (2 Bft) 97,87 %
15.01.2019 01:06 1,4 C 0,6 C 0,6 C 95 % 1018,5 hPa 0,0 l/m 0 min 0 min 0 W/m 6,4 km/h (2 Bft) 96,55 %
15.01.2019 01:08 1,4 C 0,6 C 0,6 C 95 % 1018,6 hPa 0,0 l/m 0 min 0 min 0 W/m 6,4 km/h (2 Bft) 100,00 %
15.01.2019 01:10 1,4 C 0,6 C 0,0 C 95 % 1018,6 hPa 0,0 l/m 0 min 0 min 0 W/m 6,4 km/h (2 Bft) 97,87 %
15.01.2019 01:12 1,4 C 0,6 C 0,0 C 95 % 1018,6 hPa 0,0 l/m 0 min 0 min 0 W/m 6,4 km/h (2 Bft) 97,87 %
15.01.2019 01:14 1,4 C 0,6 C 0,6 C 95 % 1018,5 hPa 0,0 l/m 0 min 0 min 0 W/m 9,7 km/h (2 Bft) 95,74 %
15.01.2019 01:16 1,4 C 0,6 C 0,0 C 95 % 1018,5 hPa 0,0 l/m 0 min 0 min 0 W/m 6,4 km/h (2 Bft) 97,87 %
15.01.2019 01:18 1,3 C 0,6 C 0,0 C 95 % 1018,5 hPa 0,0 l/m 0 min 0 min 0 W/m 3,2 km/h (1 Bft) 97,87 %
15.01.2019 01:20 1,3 C 0,6 C 0,0 C 95 % 1018,5 hPa 0,0 l/m 0 min 0 min 0 W/m 6,4 km/h (2 Bft) 97,83 %
15.01.2019 01:22 1,3 C 0,6 C 0,0 C 95 % 1018,5 hPa 0,0 l/m 0 min 0 min 0 W/m 6,4 km/h (2 Bft) 97,87 %
15.01.2019 01:24 1,3 C 0,6 C 0,0 C 95 % 1018,5 hPa 0,0 l/m 0 min 0 min 0 W/m 3,2 km/h (1 Bft) 97,87 %
15.01.2019 01:26 1,3 C 0,6 C 0,0 C 95 % 1018,5 hPa 0,0 l/m 0 min 0 min 0 W/m 3,2 km/h (1 Bft) 97,87 %
15.01.2019 01:28 1,3 C 0,6 C 0,0 C 95 % 1018,6 hPa 0,0 l/m 0 min 0 min 0 W/m 6,4 km/h (2 Bft) 97,87 %
15.01.2019 01:30 1,3 C 0,6 C 0,0 C 95 % 1018,6 hPa 0,0 l/m 0 min 0 min 0 W/m 3,2 km/h (1 Bft) 100,00 %
15.01.2019 01:32 1,3 C 0,6 C 0,0 C 95 % 1018,5 hPa 0,0 l/m 0 min 0 min 0 W/m 6,4 km/h (2 Bft) 100,00 %
15.01.2019 01:34 1,2 C 0,6 C 0,0 C 95 % 1018,5 hPa 0,0 l/m 0 min 0 min 0 W/m 6,4 km/h (2 Bft) 100,00 %
15.01.2019 01:36 1,3 C 0,6 C 0,0 C 95 % 1018,6 hPa 0,0 l/m 0 min 0 min 0 W/m 6,4 km/h (2 Bft) 100,00 %
15.01.2019 01:38 1,2 C 0,6 C 0,0 C 95 % 1018,6 hPa 0,0 l/m 0 min 0 min 0 W/m 9,7 km/h (2 Bft) 100,00 %
15.01.2019 01:40 1,2 C 0,6 C 0,0 C 95 % 1018,6 hPa 0,0 l/m 0 min 0 min 0 W/m 3,2 km/h (1 Bft) 100,00 %
15.01.2019 01:42 1,2 C 0,6 C 0,0 C 95 % 1018,6 hPa 0,0 l/m 0 min 0 min 0 W/m 6,4 km/h (2 Bft) 100,00 %
15.01.2019 01:44 1,2 C 0,6 C 0,0 C 95 % 1018,6 hPa 0,0 l/m 0 min 0 min 0 W/m 6,4 km/h (2 Bft) 100,00 %
15.01.2019 01:46 1,2 C 0,6 C 0,0 C 95 % 1018,6 hPa 0,0 l/m 0 min 0 min 0 W/m 6,4 km/h (2 Bft) 100,00 %
15.01.2019 01:48 1,2 C 0,6 C 0,0 C 95 % 1018,6 hPa 0,0 l/m 0 min 0 min 0 W/m 3,2 km/h (1 Bft) 100,00 %
15.01.2019 01:50 1,2 C 0,6 C 0,0 C 95 % 1018,6 hPa 0,0 l/m 0 min 0 min 0 W/m 0,0 km/h (0 Bft) 100,00 %
15.01.2019 01:52 1,2 C 0,6 C 0,0 C 95 % 1018,6 hPa 0,0 l/m 0 min 0 min 0 W/m 0,0 km/h (0 Bft) 97,87 %
15.01.2019 01:54 1,2 C 0,6 C 0,0 C 95 % 1018,5 hPa 0,0 l/m 0 min 0 min 0 W/m 0,0 km/h (0 Bft) 100,00 %
15.01.2019 01:56 1,2 C 0,6 C 0,0 C 95 % 1018,5 hPa 0,0 l/m 0 min 0 min 0 W/m 0,0 km/h (0 Bft) 100,00 %
15.01.2019 01:58 1,2 C 0,6 C 0,0 C 95 % 1018,5 hPa 0,0 l/m 0 min 0 min 0 W/m 0,0 km/h (0 Bft) 100,00 %
15.01.2019 02:00 1,1 C 0,6 C 0,0 C 96 % 1018,5 hPa 0,0 l/m 0 min 0 min 0 W/m 0,0 km/h (0 Bft) 97,87 %
15.01.2019 02:02 1,1 C 0,6 C 0,0 C 96 % 1018,5 hPa 0,0 l/m 0 min 0 min 0 W/m 3,2 km/h (1 Bft) 100,00 %
15.01.2019 02:04 1,1 C 0,6 C 0,0 C 96 % 1018,5 hPa 0,0 l/m 0 min 0 min 0 W/m 3,2 km/h (1 Bft) 100,00 %
15.01.2019 02:06 1,1 C 0,6 C 0,0 C 96 % 1018,5 hPa 0,0 l/m 0 min 0 min 0 W/m 6,4 km/h (2 Bft) 98,28 %
15.01.2019 02:08 1,1 C 0,6 C 0,0 C 96 % 1018,5 hPa 0,0 l/m 0 min 0 min 0 W/m 0,0 km/h (0 Bft) 97,14 %
15.01.2019 02:10 1,1 C 0,6 C 0,0 C 96 % 1018,5 hPa 0,0 l/m 0 min 0 min 0 W/m 0,0 km/h (0 Bft) 97,87 %
15.01.2019 02:12 1,1 C 0,6 C 0,0 C 96 % 1018,5 hPa 0,0 l/m 0 min 0 min 0 W/m 9,7 km/h (2 Bft) 97,87 %
15.01.2019 02:14 1,1 C 0,6 C 0,0 C 96 % 1018,5 hPa 0,0 l/m 0 min 0 min 0 W/m 3,2 km/h (1 Bft) 97,87 %
15.01.2019 02:16 1,1 C 0,6 C 0,0 C 96 % 1018,5 hPa 0,0 l/m 0 min 0 min 0 W/m 9,7 km/h (2 Bft) 95,74 %
15.01.2019 02:18 1,1 C 0,6 C 0,0 C 95 % 1018,5 hPa 0,0 l/m 0 min 0 min 0 W/m 6,4 km/h (2 Bft) 93,48 %
15.01.2019 02:20 1,1 C 0,6 C 0,0 C 95 % 1018,5 hPa 0,0 l/m 0 min 0 min 0 W/m 3,2 km/h (1 Bft) 95,74 %
15.01.2019 02:22 1,1 C 0,6 C 0,0 C 96 % 1018,5 hPa 0,0 l/m 0 min 0 min 0 W/m 6,4 km/h (2 Bft) 93,62 %
15.01.2019 02:24 1,1 C 0,6 C 0,0 C 96 % 1018,6 hPa 0,0 l/m 0 min 0 min 0 W/m 6,4 km/h (2 Bft) 95,74 %
15.01.2019 02:26 1,1 C 0,6 C 0,0 C 96 % 1018,5 hPa 0,0 l/m 0 min 0 min 0 W/m 6,4 km/h (2 Bft) 95,74 %
15.01.2019 02:28 1,0 C 0,6 C 0,0 C 96 % 1018,6 hPa 0,0 l/m 0 min 0 min 0 W/m 9,7 km/h (2 Bft) 95,74 %
15.01.2019 02:30 1,0 C 0,6 C 0,0 C 96 % 1018,6 hPa 0,0 l/m 0 min 0 min 0 W/m 6,4 km/h (2 Bft) 95,65 %
15.01.2019 02:32 1,0 C 0,6 C 0,0 C 96 % 1018,6 hPa 0,0 l/m 0 min 0 min 0 W/m 6,4 km/h (2 Bft) 95,74 %
15.01.2019 02:34 1,0 C 0,6 C 0,0 C 96 % 1018,6 hPa 0,0 l/m 0 min 0 min 0 W/m 6,4 km/h (2 Bft) 93,62 %
15.01.2019 02:36 1,0 C 0,6 C 0,0 C 96 % 1018,7 hPa 0,0 l/m 0 min 0 min 0 W/m 6,4 km/h (2 Bft) 93,22 %
15.01.2019 02:38 1,0 C 0,6 C 0,0 C 96 % 1018,7 hPa 0,0 l/m 0 min 0 min 0 W/m 6,4 km/h (2 Bft) 97,14 %
15.01.2019 02:40 1,0 C 0,6 C 0,0 C 96 % 1018,7 hPa 0,0 l/m 0 min 0 min 0 W/m 3,2 km/h (1 Bft) 95,65 %
15.01.2019 02:42 1,0 C 0,6 C 0,0 C 96 % 1018,7 hPa 0,0 l/m 0 min 0 min 0 W/m 3,2 km/h (1 Bft) 95,74 %
15.01.2019 02:44 1,0 C 0,6 C 0,0 C 96 % 1018,7 hPa 0,0 l/m 0 min 0 min 0 W/m 6,4 km/h (2 Bft) 95,74 %
15.01.2019 02:46 0,9 C 0,6 C 0,0 C 96 % 1018,7 hPa 0,0 l/m 0 min 0 min 0 W/m 0,0 km/h (0 Bft) 95,74 %
15.01.2019 02:48 0,9 C 0,6 C 0,0 C 96 % 1018,6 hPa 0,0 l/m 0 min 0 min 0 W/m 0,0 km/h (0 Bft) 93,62 %
15.01.2019 02:50 0,9 C 0,6 C 0,0 C 96 % 1018,7 hPa 0,0 l/m 0 min 0 min 0 W/m 3,2 km/h (1 Bft) 95,74 %
15.01.2019 02:52 0,9 C 0,6 C 0,0 C 96 % 1018,7 hPa 0,0 l/m 0 min 0 min 0 W/m 3,2 km/h (1 Bft) 95,65 %
15.01.2019 02:54 0,9 C 0,6 C 0,0 C 96 % 1018,7 hPa 0,0 l/m 0 min 0 min 0 W/m 3,2 km/h (1 Bft) 97,87 %
15.01.2019 02:56 0,9 C 0,6 C 0,0 C 96 % 1018,7 hPa 0,0 l/m 0 min 0 min 0 W/m 3,2 km/h (1 Bft) 91,49 %
15.01.2019 02:58 0,9 C 0,6 C 0,0 C 96 % 1018,8 hPa 0,0 l/m 0 min 0 min 0 W/m 6,4 km/h (2 Bft) 91,49 %
15.01.2019 03:00 0,9 C 0,6 C 0,0 C 96 % 1018,8 hPa 0,0 l/m 0 min 0 min 0 W/m 6,4 km/h (2 Bft) 97,87 %
15.01.2019 03:02 1,0 C 0,6 C 0,0 C 96 % 1018,8 hPa 0,0 l/m 0 min 0 min 0 W/m 6,4 km/h (2 Bft) 95,74 %
15.01.2019 03:04 1,0 C 0,6 C 0,0 C 96 % 1018,7 hPa 0,0 l/m 0 min 0 min 0 W/m 3,2 km/h (1 Bft) 95,65 %
15.01.2019 03:06 1,0 C 0,6 C 0,6 C 96 % 1018,6 hPa 0,0 l/m 0 min 0 min 0 W/m 6,4 km/h (2 Bft) 96,61 %
15.01.2019 03:08 1,1 C 1,1 C 0,6 C 96 % 1018,6 hPa 0,0 l/m 0 min 0 min 0 W/m 6,4 km/h (2 Bft) 94,29 %
15.01.2019 03:10 1,1 C 1,1 C 0,6 C 96 % 1018,7 hPa 0,0 l/m 0 min 0 min 0 W/m 9,7 km/h (2 Bft) 97,87 %
15.01.2019 03:12 1,1 C 1,1 C 0,6 C 96 % 1018,8 hPa 0,0 l/m 0 min 0 min 0 W/m 9,7 km/h (2 Bft) 97,87 %
15.01.2019 03:14 1,2 C 1,1 C 0,6 C 96 % 1018,8 hPa 0,2 l/m 0 min 0 min 0 W/m 6,4 km/h (2 Bft) 95,74 %
15.01.2019 03:16 1,2 C 1,1 C 0,6 C 96 % 1018,8 hPa 0,0 l/m 0 min 0 min 0 W/m 16,1 km/h (3 Bft) 97,83 %
15.01.2019 03:18 1,3 C 1,1 C 1,1 C 96 % 1018,8 hPa 0,0 l/m 0 min 0 min 0 W/m 9,7 km/h (2 Bft) 97,87 %
15.01.2019 03:20 1,3 C 1,1 C 1,1 C 96 % 1018,8 hPa 0,0 l/m 0 min 0 min 0 W/m 9,7 km/h (2 Bft) 97,87 %
15.01.2019 03:22 1,4 C 1,7 C 1,1 C 96 % 1018,8 hPa 0,0 l/m 0 min 0 min 0 W/m 6,4 km/h (2 Bft) 95,74 %
15.01.2019 03:24 1,4 C 1,7 C 1,1 C 96 % 1018,8 hPa 0,0 l/m 0 min 0 min 0 W/m 3,2 km/h (1 Bft) 97,87 %
15.01.2019 03:26 1,5 C 1,7 C 1,1 C 96 % 1018,8 hPa 0,0 l/m 0 min 0 min 0 W/m 9,7 km/h (2 Bft) 95,74 %
15.01.2019 03:28 1,6 C 1,7 C 1,1 C 96 % 1018,8 hPa 0,0 l/m 0 min 0 min 0 W/m 9,7 km/h (2 Bft) 95,65 %
15.01.2019 03:30 1,6 C 1,7 C 1,1 C 96 % 1018,7 hPa 0,0 l/m 0 min 0 min 0 W/m 9,7 km/h (2 Bft) 97,87 %
15.01.2019 03:32 1,7 C 1,7 C 1,1 C 96 % 1018,8 hPa 0,0 l/m 0 min 0 min 0 W/m 9,7 km/h (2 Bft) 97,87 %
15.01.2019 03:34 1,7 C 1,7 C 1,1 C 96 % 1018,7 hPa 0,0 l/m 0 min 0 min 0 W/m 9,7 km/h (2 Bft) 97,87 %
15.01.2019 03:36 1,7 C 1,7 C 1,1 C 97 % 1018,7 hPa 0,0 l/m 0 min 0 min 0 W/m 9,7 km/h (2 Bft) 98,28 %
15.01.2019 03:38 1,8 C 1,7 C 1,1 C 97 % 1018,7 hPa 0,0 l/m 0 min 0 min 0 W/m 9,7 km/h (2 Bft) 97,22 %
15.01.2019 03:40 1,8 C 1,7 C 1,1 C 97 % 1018,5 hPa 0,0 l/m 0 min 0 min 0 W/m 12,9 km/h (3 Bft) 97,83 %
15.01.2019 03:42 1,8 C 1,7 C 1,1 C 97 % 1018,5 hPa 0,0 l/m 0 min 0 min 0 W/m 9,7 km/h (2 Bft) 97,87 %
15.01.2019 03:44 1,9 C 1,7 C 1,1 C 97 % 1018,5 hPa 0,0 l/m 0 min 0 min 0 W/m 12,9 km/h (3 Bft) 97,87 %
15.01.2019 03:46 1,9 C 1,7 C 1,1 C 97 % 1018,6 hPa 0,0 l/m 0 min 0 min 0 W/m 9,7 km/h (2 Bft) 97,87 %
15.01.2019 03:48 1,9 C 1,7 C 1,1 C 97 % 1018,6 hPa 0,0 l/m 0 min 0 min 0 W/m 6,4 km/h (2 Bft) 95,74 %
15.01.2019 03:50 2,0 C 1,7 C 1,1 C 97 % 1018,5 hPa 0,0 l/m 0 min 0 min 0 W/m 9,7 km/h (2 Bft) 97,83 %
15.01.2019 03:52 2,0 C 1,7 C 1,1 C 97 % 1018,5 hPa 0,0 l/m 0 min 0 min 0 W/m 6,4 km/h (2 Bft) 97,87 %
15.01.2019 03:54 2,1 C 1,7 C 1,1 C 97 % 1018,4 hPa 0,0 l/m 0 min 0 min 0 W/m 6,4 km/h (2 Bft) 97,87 %
15.01.2019 03:56 2,1 C 1,7 C 1,1 C 97 % 1018,4 hPa 0,0 l/m 0 min 0 min 0 W/m 9,7 km/h (2 Bft) 95,74 %
15.01.2019 03:58 2,1 C 1,7 C 1,1 C 97 % 1018,4 hPa 0,0 l/m 0 min 0 min 0 W/m 6,4 km/h (2 Bft) 97,87 %
15.01.2019 04:00 2,1 C 2,2 C 1,1 C 97 % 1018,3 hPa 0,0 l/m 0 min 0 min 0 W/m 16,1 km/h (3 Bft) 100,00 %
15.01.2019 04:02 2,1 C 2,2 C 1,1 C 97 % 1018,1 hPa 0,0 l/m 0 min 0 min 0 W/m 9,7 km/h (2 Bft) 100,00 %
15.01.2019 04:04 2,2 C 2,2 C 1,1 C 97 % 1018,2 hPa 0,0 l/m 0 min 0 min 0 W/m 9,7 km/h (2 Bft) 97,87 %
15.01.2019 04:06 2,2 C 2,2 C 1,7 C 97 % 1018,3 hPa 0,0 l/m 0 min 0 min 0 W/m 6,4 km/h (2 Bft) 100,00 %
15.01.2019 04:08 2,2 C 2,2 C 1,7 C 97 % 1018,4 hPa 0,0 l/m 0 min 0 min 0 W/m 6,4 km/h (2 Bft) 100,00 %
15.01.2019 04:10 2,2 C 2,2 C 1,7 C 97 % 1018,4 hPa 0,0 l/m 0 min 0 min 0 W/m 6,4 km/h (2 Bft) 100,00 %
15.01.2019 04:12 2,3 C 2,2 C 1,7 C 97 % 1018,4 hPa 0,0 l/m 0 min 0 min 0 W/m 3,2 km/h (1 Bft) 100,00 %
15.01.2019 04:14 2,3 C 2,2 C 1,7 C 97 % 1018,3 hPa 0,0 l/m 0 min 0 min 0 W/m 19,3 km/h (3 Bft) 100,00 %
15.01.2019 04:16 2,3 C 2,2 C 1,7 C 97 % 1018,3 hPa 0,0 l/m 0 min 0 min 0 W/m 6,4 km/h (2 Bft) 100,00 %
15.01.2019 04:18 2,3 C 2,2 C 1,7 C 97 % 1018,2 hPa 0,0 l/m 0 min 0 min 0 W/m 6,4 km/h (2 Bft) 100,00 %
15.01.2019 04:20 2,3 C 2,2 C 1,7 C 97 % 1018,2 hPa 0,0 l/m 0 min 0 min 0 W/m 6,4 km/h (2 Bft) 100,00 %
15.01.2019 04:22 2,3 C 2,2 C 1,7 C 97 % 1018,3 hPa 0,0 l/m 0 min 0 min 0 W/m 9,7 km/h (2 Bft) 100,00 %
15.01.2019 04:24 2,3 C 2,2 C 1,7 C 97 % 1018,2 hPa 0,0 l/m 0 min 0 min 0 W/m 9,7 km/h (2 Bft) 100,00 %
15.01.2019 04:26 2,3 C 2,2 C 1,7 C 97 % 1018,2 hPa 0,0 l/m 0 min 0 min 0 W/m 12,9 km/h (3 Bft) 100,00 %
15.01.2019 04:28 2,4 C 2,2 C 1,7 C 97 % 1018,2 hPa 0,0 l/m 0 min 0 min 0 W/m 9,7 km/h (2 Bft) 100,00 %
15.01.2019 04:30 2,4 C 2,2 C 1,7 C 97 % 1018,2 hPa 0,0 l/m 0 min 0 min 0 W/m 9,7 km/h (2 Bft) 97,87 %
15.01.2019 04:32 2,4 C 2,2 C 1,7 C 97 % 1018,2 hPa 0,0 l/m 0 min 0 min 0 W/m 9,7 km/h (2 Bft) 97,87 %
15.01.2019 04:34 2,4 C 2,2 C 1,7 C 97 % 1018,1 hPa 0,0 l/m 0 min 0 min 0 W/m 9,7 km/h (2 Bft) 100,00 %
15.01.2019 04:36 2,4 C 2,2 C 1,7 C 97 % 1018,1 hPa 0,0 l/m 0 min 0 min 0 W/m 9,7 km/h (2 Bft) 100,00 %
15.01.2019 04:38 2,4 C 2,2 C 1,7 C 97 % 1018,0 hPa 0,0 l/m 0 min 0 min 0 W/m 6,4 km/h (2 Bft) 100,00 %
15.01.2019 04:40 2,4 C 2,2 C 1,7 C 97 % 1018,2 hPa 0,0 l/m 0 min 0 min 0 W/m 3,2 km/h (1 Bft) 100,00 %
15.01.2019 04:42 2,4 C 2,2 C 1,7 C 97 % 1018,1 hPa 0,0 l/m 0 min 0 min 0 W/m 9,7 km/h (2 Bft) 97,87 %
15.01.2019 04:44 2,4 C 2,2 C 1,7 C 97 % 1018,1 hPa 0,0 l/m 0 min 0 min 0 W/m 12,9 km/h (3 Bft) 97,87 %
15.01.2019 04:46 2,4 C 2,2 C 1,7 C 97 % 1018,1 hPa 0,0 l/m 0 min 0 min 0 W/m 9,7 km/h (2 Bft) 97,87 %
15.01.2019 04:48 2,4 C 2,2 C 1,7 C 97 % 1018,2 hPa 0,0 l/m 0 min 0 min 0 W/m 6,4 km/h (2 Bft) 97,87 %
15.01.2019 04:50 2,4 C 2,2 C 1,7 C 97 % 1018,1 hPa 0,0 l/m 0 min 0 min 0 W/m 9,7 km/h (2 Bft) 97,83 %
15.01.2019 04:52 2,4 C 2,2 C 1,7 C 97 % 1018,3 hPa 0,0 l/m 0 min 0 min 0 W/m 6,4 km/h (2 Bft) 97,87 %
15.01.2019 04:54 2,4 C 2,2 C 1,7 C 97 % 1018,3 hPa 0,0 l/m 0 min 0 min 0 W/m 3,2 km/h (1 Bft) 95,74 %
15.01.2019 04:56 2,4 C 2,2 C 1,7 C 97 % 1018,2 hPa 0,0 l/m 0 min 0 min 0 W/m 9,7 km/h (2 Bft) 97,87 %
15.01.2019 04:58 2,4 C 2,2 C 1,7 C 97 % 1018,0 hPa 0,0 l/m 0 min 0 min 0 W/m 0,0 km/h (0 Bft) 97,87 %
15.01.2019 05:00 2,4 C 1,7 C 1,1 C 97 % 1018,0 hPa 0,0 l/m 0 min 0 min 0 W/m 9,7 km/h (2 Bft) 97,87 %
15.01.2019 05:02 2,4 C 1,7 C 1,1 C 97 % 1018,0 hPa 0,0 l/m 0 min 0 min 0 W/m 9,7 km/h (2 Bft) 95,65 %
15.01.2019 05:04 2,4 C 1,7 C 1,1 C 97 % 1018,0 hPa 0,0 l/m 0 min 0 min 0 W/m 16,1 km/h (3 Bft) 97,87 %
15.01.2019 05:06 2,4 C 1,7 C 1,1 C 97 % 1017,9 hPa 0,0 l/m 0 min 0 min 0 W/m 12,9 km/h (3 Bft) 96,72 %
15.01.2019 05:08 2,3 C 1,7 C 1,1 C 97 % 1017,9 hPa 0,0 l/m 0 min 0 min 0 W/m 12,9 km/h (3 Bft) 100,00 %
15.01.2019 05:10 2,3 C 1,7 C 1,1 C 97 % 1017,9 hPa 0,0 l/m 0 min 0 min 0 W/m 12,9 km/h (3 Bft) 93,62 %
15.01.2019 05:12 2,3 C 1,7 C 1,1 C 97 % 1017,9 hPa 0,0 l/m 0 min 0 min 0 W/m 6,4 km/h (2 Bft) 97,87 %
15.01.2019 05:14 2,3 C 1,7 C 1,1 C 97 % 1017,8 hPa 0,0 l/m 0 min 0 min 0 W/m 9,7 km/h (2 Bft) 97,83 %
15.01.2019 05:16 2,3 C 1,7 C 1,1 C 97 % 1017,8 hPa 0,0 l/m 0 min 0 min 0 W/m 9,7 km/h (2 Bft) 97,87 %
15.01.2019 05:18 2,3 C 1,7 C 1,1 C 97 % 1017,9 hPa 0,0 l/m 0 min 0 min 0 W/m 9,7 km/h (2 Bft) 97,87 %
15.01.2019 05:20 2,3 C 1,7 C 1,1 C 97 % 1017,9 hPa 0,0 l/m 0 min 0 min 0 W/m 6,4 km/h (2 Bft) 97,87 %
15.01.2019 05:22 2,3 C 1,7 C 1,1 C 97 % 1017,9 hPa 0,0 l/m 0 min 0 min 0 W/m 12,9 km/h (3 Bft) 93,62 %
15.01.2019 05:24 2,3 C 1,7 C 1,1 C 97 % 1017,9 hPa 0,0 l/m 0 min 0 min 0 W/m 6,4 km/h (2 Bft) 97,87 %
15.01.2019 05:26 2,3 C 1,7 C 1,1 C 97 % 1017,9 hPa 0,0 l/m 0 min 0 min 0 W/m 9,7 km/h (2 Bft) 100,00 %
15.01.2019 05:28 2,3 C 1,7 C 1,1 C 97 % 1017,9 hPa 0,0 l/m 0 min 0 min 0 W/m 12,9 km/h (3 Bft) 97,87 %
15.01.2019 05:30 2,3 C 1,7 C 1,1 C 97 % 1017,8 hPa 0,0 l/m 0 min 0 min 0 W/m 6,4 km/h (2 Bft) 100,00 %
15.01.2019 05:32 2,3 C 1,7 C 1,1 C 97 % 1017,8 hPa 0,0 l/m 0 min 0 min 0 W/m 12,9 km/h (3 Bft) 100,00 %
15.01.2019 05:34 2,3 C 1,7 C 1,1 C 97 % 1017,9 hPa 0,0 l/m 0 min 0 min 0 W/m 9,7 km/h (2 Bft) 100,00 %
15.01.2019 05:36 2,3 C 1,7 C 1,1 C 97 % 1017,8 hPa 0,0 l/m 0 min 0 min 0 W/m 6,4 km/h (2 Bft) 96,55 %
15.01.2019 05:38 2,3 C 1,7 C 1,1 C 97 % 1017,8 hPa 0,0 l/m 0 min 0 min 0 W/m 16,1 km/h (3 Bft) 100,00 %
15.01.2019 05:40 2,3 C 1,7 C 1,1 C 97 % 1017,8 hPa 0,0 l/m 0 min 0 min 0 W/m 16,1 km/h (3 Bft) 95,74 %
15.01.2019 05:42 2,3 C 1,7 C 1,1 C 97 % 1017,8 hPa 0,0 l/m 0 min 0 min 0 W/m 9,7 km/h (2 Bft) 95,74 %
15.01.2019 05:44 2,3 C 1,7 C 1,1 C 97 % 1017,7 hPa 0,0 l/m 0 min 0 min 0 W/m 6,4 km/h (2 Bft) 95,74 %
15.01.2019 05:46 2,3 C 1,7 C 1,1 C 97 % 1017,6 hPa 0,0 l/m 0 min 0 min 0 W/m 6,4 km/h (2 Bft) 95,74 %
15.01.2019 05:48 2,3 C 1,7 C 1,1 C 97 % 1017,6 hPa 0,0 l/m 0 min 0 min 0 W/m 12,9 km/h (3 Bft) 97,83 %
15.01.2019 05:50 2,3 C 1,7 C 1,1 C 97 % 1017,6 hPa 0,0 l/m 0 min 0 min 0 W/m 6,4 km/h (2 Bft) 97,87 %
15.01.2019 05:52 2,3 C 1,7 C 1,1 C 97 % 1017,6 hPa 0,0 l/m 0 min 0 min 0 W/m 9,7 km/h (2 Bft) 97,87 %
15.01.2019 05:54 2,3 C 1,7 C 1,1 C 97 % 1017,5 hPa 0,0 l/m 0 min 0 min 0 W/m 9,7 km/h (2 Bft) 95,74 %
15.01.2019 05:56 2,3 C 2,2 C 1,1 C 97 % 1017,5 hPa 0,0 l/m 0 min 0 min 0 W/m 12,9 km/h (3 Bft) 95,74 %
15.01.2019 05:58 2,3 C 2,2 C 1,1 C 97 % 1017,5 hPa 0,0 l/m 0 min 0 min 0 W/m 6,4 km/h (2 Bft) 95,74 %
15.01.2019 06:00 2,3 C 2,2 C 1,1 C 97 % 1017,5 hPa 0,0 l/m 0 min 0 min 0 W/m 19,3 km/h (3 Bft) 93,48 %
15.01.2019 06:02 2,4 C 2,2 C 1,1 C 97 % 1017,4 hPa 0,0 l/m 0 min 0 min 0 W/m 3,2 km/h (1 Bft) 95,74 %
15.01.2019 06:04 2,4 C 2,2 C 1,1 C 97 % 1017,5 hPa 0,0 l/m 0 min 0 min 0 W/m 9,7 km/h (2 Bft) 95,74 %
15.01.2019 06:07 2,4 C 2,2 C 1,1 C 97 % 1017,5 hPa 0,0 l/m 0 min 0 min 0 W/m 9,7 km/h (2 Bft) 93,90 %
15.01.2019 06:08 2,4 C 2,2 C 1,1 C 97 % 1017,5 hPa 0,0 l/m 0 min 0 min 0 W/m 3,2 km/h (1 Bft) 100,00 %
15.01.2019 06:10 2,4 C 2,2 C 1,1 C 97 % 1017,5 hPa 0,0 l/m 0 min 0 min 0 W/m 9,7 km/h (2 Bft) 97,87 %
15.01.2019 06:12 2,4 C 2,2 C 1,7 C 97 % 1017,5 hPa 0,0 l/m 0 min 0 min 0 W/m 12,9 km/h (3 Bft) 95,65 %
15.01.2019 06:14 2,4 C 2,2 C 1,1 C 97 % 1017,4 hPa 0,0 l/m 0 min 0 min 0 W/m 6,4 km/h (2 Bft) 93,62 %
15.01.2019 06:16 2,4 C 2,2 C 1,7 C 97 % 1017,6 hPa 0,0 l/m 0 min 0 min 0 W/m 9,7 km/h (2 Bft) 93,62 %
15.01.2019 06:18 2,4 C 2,2 C 1,7 C 97 % 1017,5 hPa 0,0 l/m 0 min 0 min 0 W/m 12,9 km/h (3 Bft) 95,74 %
15.01.2019 06:20 2,4 C 2,2 C 1,1 C 97 % 1017,5 hPa 0,0 l/m 0 min 0 min 0 W/m 3,2 km/h (1 Bft) 93,62 %
15.01.2019 06:22 2,4 C 1,7 C 1,1 C 97 % 1017,4 hPa 0,0 l/m 0 min 0 min 0 W/m 3,2 km/h (1 Bft) 93,62 %
15.01.2019 06:24 2,4 C 1,7 C 1,1 C 97 % 1017,5 hPa 0,0 l/m 0 min 0 min 0 W/m 12,9 km/h (3 Bft) 95,65 %
15.01.2019 06:26 2,4 C 2,2 C 1,1 C 97 % 1017,4 hPa 0,0 l/m 0 min 0 min 0 W/m 6,4 km/h (2 Bft) 95,74 %
15.01.2019 06:28 2,4 C 2,2 C 1,1 C 97 % 1017,4 hPa 0,0 l/m 0 min 0 min 0 W/m 6,4 km/h (2 Bft) 95,74 %
15.01.2019 06:30 2,4 C 2,2 C 1,7 C 97 % 1017,3 hPa 0,0 l/m 0 min 0 min 0 W/m 6,4 km/h (2 Bft) 95,74 %
15.01.2019 06:32 2,4 C 2,2 C 1,7 C 97 % 1017,4 hPa 0,0 l/m 0 min 0 min 0 W/m 6,4 km/h (2 Bft) 95,74 %
15.01.2019 06:34 2,4 C 2,2 C 1,7 C 97 % 1017,5 hPa 0,0 l/m 0 min 0 min 0 W/m 12,9 km/h (3 Bft) 95,74 %
15.01.2019 06:36 2,4 C 2,2 C 1,7 C 97 % 1017,3 hPa 0,0 l/m 0 min 0 min 0 W/m 6,4 km/h (2 Bft) 93,10 %
15.01.2019 06:38 2,4 C 2,2 C 1,7 C 97 % 1017,4 hPa 0,0 l/m 0 min 0 min 0 W/m 9,7 km/h (2 Bft) 100,00 %
15.01.2019 06:40 2,5 C 2,2 C 1,7 C 97 % 1017,4 hPa 0,0 l/m 0 min 0 min 0 W/m 16,1 km/h (3 Bft) 100,00 %
15.01.2019 06:42 2,5 C 2,2 C 1,7 C 97 % 1017,3 hPa 0,0 l/m 0 min 0 min 0 W/m 16,1 km/h (3 Bft) 97,87 %
15.01.2019 06:44 2,5 C 2,2 C 1,7 C 97 % 1017,4 hPa 0,0 l/m 0 min 0 min 0 W/m 9,7 km/h (2 Bft) 100,00 %
15.01.2019 06:46 2,6 C 2,2 C 1,7 C 97 % 1017,4 hPa 0,0 l/m 0 min 0 min 0 W/m 9,7 km/h (2 Bft) 97,83 %
15.01.2019 06:48 2,6 C 2,2 C 1,7 C 97 % 1017,4 hPa 0,0 l/m 0 min 0 min 0 W/m 6,4 km/h (2 Bft) 100,00 %
15.01.2019 06:50 2,6 C 2,2 C 1,7 C 97 % 1017,3 hPa 0,0 l/m 0 min 0 min 0 W/m 9,7 km/h (2 Bft) 100,00 %
15.01.2019 06:52 2,6 C 2,8 C 1,7 C 97 % 1017,3 hPa 0,0 l/m 0 min 0 min 0 W/m 6,4 km/h (2 Bft) 97,87 %
15.01.2019 06:54 2,6 C 2,8 C 1,7 C 97 % 1017,3 hPa 0,0 l/m 0 min 0 min 0 W/m 6,4 km/h (2 Bft) 100,00 %
15.01.2019 06:56 2,6 C 2,8 C 1,7 C 97 % 1017,2 hPa 0,0 l/m 0 min 0 min 0 W/m 19,3 km/h (3 Bft) 95,74 %
15.01.2019 06:58 2,6 C 2,8 C 1,7 C 97 % 1017,3 hPa 0,0 l/m 0 min 0 min 0 W/m 6,4 km/h (2 Bft) 97,83 %
15.01.2019 07:00 2,7 C 2,8 C 1,7 C 97 % 1017,2 hPa 0,0 l/m 0 min 0 min 0 W/m 9,7 km/h (2 Bft) 100,00 %
15.01.2019 07:02 2,7 C 2,8 C 1,7 C 97 % 1017,1 hPa 0,0 l/m 0 min 0 min 0 W/m 6,4 km/h (2 Bft) 100,00 %
15.01.2019 07:04 2,7 C 2,8 C 2,2 C 97 % 1017,0 hPa 0,0 l/m 0 min 0 min 0 W/m 6,4 km/h (2 Bft) 100,00 %
15.01.2019 07:06 2,7 C 2,8 C 2,2 C 97 % 1017,0 hPa 0,0 l/m 0 min 0 min 0 W/m 6,4 km/h (2 Bft) 100,00 %
15.01.2019 07:08 2,7 C 2,8 C 2,2 C 97 % 1017,0 hPa 0,0 l/m 0 min 0 min 0 W/m 9,7 km/h (2 Bft) 100,00 %
15.01.2019 07:10 2,7 C 2,8 C 2,2 C 97 % 1016,9 hPa 0,0 l/m 0 min 0 min 0 W/m 3,2 km/h (1 Bft) 100,00 %
15.01.2019 07:12 2,8 C 2,8 C 2,2 C 97 % 1016,9 hPa 0,0 l/m 0 min 0 min 0 W/m 3,2 km/h (1 Bft) 100,00 %
15.01.2019 07:14 2,8 C 2,8 C 2,2 C 97 % 1017,0 hPa 0,0 l/m 0 min 0 min 0 W/m 9,7 km/h (2 Bft) 100,00 %
15.01.2019 07:16 2,8 C 2,8 C 2,2 C 97 % 1017,0 hPa 0,0 l/m 0 min 2 min 0 W/m 6,4 km/h (2 Bft) 97,87 %
15.01.2019 07:18 2,8 C 2,8 C 2,2 C 97 % 1016,9 hPa 0,0 l/m 0 min 2 min 0 W/m 9,7 km/h (2 Bft) 97,87 %
15.01.2019 07:20 2,9 C 2,8 C 2,2 C 97 % 1017,0 hPa 0,0 l/m 0 min 2 min 0 W/m 16,1 km/h (3 Bft) 97,87 %
15.01.2019 07:22 2,9 C 2,8 C 2,2 C 97 % 1017,0 hPa 0,0 l/m 0 min 0 min 0 W/m 3,2 km/h (1 Bft) 97,83 %
15.01.2019 07:24 2,9 C 2,8 C 2,2 C 97 % 1016,9 hPa 0,0 l/m 0 min 0 min 0 W/m 6,4 km/h (2 Bft) 97,87 %
15.01.2019 07:26 2,9 C 2,8 C 2,2 C 97 % 1016,9 hPa 0,0 l/m 0 min 0 min 0 W/m 9,7 km/h (2 Bft) 95,74 %
15.01.2019 07:28 2,9 C 2,8 C 2,2 C 97 % 1016,9 hPa 0,0 l/m 0 min 0 min 0 W/m 6,4 km/h (2 Bft) 95,74 %
15.01.2019 07:30 2,9 C 2,8 C 2,2 C 97 % 1016,8 hPa 0,0 l/m 0 min 0 min 0 W/m 9,7 km/h (2 Bft) 97,87 %
15.01.2019 07:32 3,0 C 2,8 C 2,2 C 97 % 1016,8 hPa 0,0 l/m 0 min 0 min 0 W/m 12,9 km/h (3 Bft) 95,74 %
15.01.2019 07:34 3,0 C 2,8 C 2,2 C 97 % 1016,9 hPa 0,0 l/m 0 min 0 min 0 W/m 9,7 km/h (2 Bft) 97,83 %
15.01.2019 07:36 3,0 C 2,8 C 2,2 C 97 % 1016,8 hPa 0,0 l/m 0 min 0 min 0 W/m 9,7 km/h (2 Bft) 98,31 %
15.01.2019 07:38 3,1 C 2,8 C 2,2 C 97 % 1016,9 hPa 0,0 l/m 0 min 0 min 0 W/m 12,9 km/h (3 Bft) 97,14 %
15.01.2019 07:40 3,1 C 2,8 C 2,2 C 97 % 1016,8 hPa 0,0 l/m 0 min 0 min 0 W/m 19,3 km/h (3 Bft) 97,87 %
15.01.2019 07:42 3,1 C 3,3 C 2,2 C 97 % 1016,8 hPa 0,0 l/m 0 min 0 min 0 W/m 9,7 km/h (2 Bft) 97,87 %
15.01.2019 07:44 3,1 C 3,3 C 2,2 C 97 % 1016,8 hPa 0,0 l/m 0 min 0 min 0 W/m 9,7 km/h (2 Bft) 97,87 %
15.01.2019 07:46 3,2 C 3,3 C 2,2 C 97 % 1016,8 hPa 0,0 l/m 0 min 0 min 0 W/m 9,7 km/h (2 Bft) 95,65 %
15.01.2019 07:48 3,2 C 3,3 C 2,2 C 97 % 1016,8 hPa 0,0 l/m 0 min 0 min 0 W/m 12,9 km/h (3 Bft) 93,62 %
15.01.2019 07:50 3,2 C 3,3 C 2,2 C 97 % 1016,9 hPa 0,0 l/m 0 min 0 min 0 W/m 12,9 km/h (3 Bft) 95,74 %
15.01.2019 07:58 3,3 C 3,3 C 2,2 C 97 % 1016,8 hPa 0,0 l/m 0 min 0 min 0 W/m 16,1 km/h (3 Bft) 94,92 %
15.01.2019 08:00 3,3 C 3,3 C 2,2 C 97 % 1016,7 hPa 0,0 l/m 0 min 0 min 0 W/m 6,4 km/h (2 Bft) 97,83 %
15.01.2019 08:02 3,3 C 3,3 C 2,2 C 97 % 1016,8 hPa 0,0 l/m 0 min 0 min 0 W/m 16,1 km/h (3 Bft) 100,00 %
15.01.2019 08:04 3,3 C 3,3 C 2,8 C 97 % 1016,9 hPa 0,0 l/m 0 min 0 min 0 W/m 16,1 km/h (3 Bft) 100,00 %
15.01.2019 08:06 3,4 C 3,3 C 2,8 C 97 % 1016,9 hPa 0,0 l/m 0 min 0 min 0 W/m 16,1 km/h (3 Bft) 93,62 %
15.01.2019 08:08 3,4 C 3,3 C 2,8 C 97 % 1016,9 hPa 0,0 l/m 0 min 0 min 0 W/m 16,1 km/h (3 Bft) 95,74 %
15.01.2019 08:10 3,4 C 3,3 C 2,8 C 97 % 1016,9 hPa 0,0 l/m 0 min 0 min 0 W/m 12,9 km/h (3 Bft) 100,00 %
15.01.2019 08:12 3,4 C 3,3 C 2,8 C 97 % 1016,8 hPa 0,0 l/m 0 min 0 min 0 W/m 19,3 km/h (3 Bft) 100,00 %
15.01.2019 08:14 3,4 C 3,3 C 2,8 C 97 % 1016,8 hPa 0,0 l/m 0 min 0 min 0 W/m 9,7 km/h (2 Bft) 97,87 %
15.01.2019 08:16 3,4 C 3,3 C 2,8 C 97 % 1016,9 hPa 0,0 l/m 0 min 0 min 0 W/m 12,9 km/h (3 Bft) 100,00 %
15.01.2019 08:20 3,4 C 3,3 C 2,8 C 97 % 1017,0 hPa 0,0 l/m 0 min 0 min 0 W/m 12,9 km/h (3 Bft) 100,00 %
15.01.2019 08:24 3,5 C 3,3 C 2,8 C 97 % 1017,0 hPa 0,0 l/m 0 min 0 min 0 W/m 12,9 km/h (3 Bft) 98,04 %
15.01.2019 08:26 3,5 C 3,3 C 2,8 C 97 % 1017,1 hPa 0,0 l/m 0 min 0 min 0 W/m 3,2 km/h (1 Bft) 100,00 %
15.01.2019 08:28 3,5 C 3,3 C 2,8 C 97 % 1017,2 hPa 0,0 l/m 0 min 0 min 0 W/m 9,7 km/h (2 Bft) 100,00 %
15.01.2019 08:30 3,5 C 3,3 C 2,8 C 97 % 1017,1 hPa 0,0 l/m 0 min 0 min 1 W/m 12,9 km/h (3 Bft) 97,87 %
15.01.2019 08:32 3,6 C 3,3 C 2,8 C 97 % 1017,1 hPa 0,0 l/m 0 min 0 min 5 W/m 6,4 km/h (2 Bft) 97,87 %
15.01.2019 08:34 3,6 C 3,3 C 2,8 C 97 % 1017,0 hPa 0,0 l/m 0 min 0 min 5 W/m 12,9 km/h (3 Bft) 97,87 %
15.01.2019 08:36 3,6 C 3,3 C 2,8 C 97 % 1017,0 hPa 0,0 l/m 0 min 0 min 5 W/m 9,7 km/h (2 Bft) 97,83 %
15.01.2019 08:38 3,6 C 3,3 C 2,8 C 97 % 1016,9 hPa 0,0 l/m 0 min 0 min 7 W/m 12,9 km/h (3 Bft) 97,87 %
15.01.2019 08:40 3,6 C 3,3 C 2,8 C 97 % 1016,9 hPa 0,0 l/m 0 min 0 min 8 W/m 6,4 km/h (2 Bft) 97,87 %
15.01.2019 08:42 3,6 C 3,3 C 2,8 C 97 % 1017,0 hPa 0,0 l/m 0 min 0 min 9 W/m 12,9 km/h (3 Bft) 97,87 %
15.01.2019 08:44 3,7 C 3,3 C 2,8 C 97 % 1017,0 hPa 0,0 l/m 0 min 0 min 11 W/m 9,7 km/h (2 Bft) 97,87 %
15.01.2019 08:46 3,7 C 3,3 C 2,8 C 97 % 1017,0 hPa 0,0 l/m 0 min 0 min 12 W/m 9,7 km/h (2 Bft) 97,87 %
15.01.2019 08:48 3,7 C 3,3 C 2,8 C 97 % 1017,1 hPa 0,0 l/m 0 min 0 min 13 W/m 9,7 km/h (2 Bft) 95,65 %
15.01.2019 08:50 3,7 C 3,3 C 2,8 C 97 % 1017,1 hPa 0,0 l/m 0 min 0 min 14 W/m 6,4 km/h (2 Bft) 97,87 %
15.01.2019 08:52 3,7 C 3,9 C 2,8 C 97 % 1017,0 hPa 0,0 l/m 0 min 0 min 15 W/m 22,5 km/h (4 Bft) 97,87 %
15.01.2019 08:54 3,8 C 3,9 C 2,8 C 97 % 1017,0 hPa 0,0 l/m 0 min 0 min 17 W/m 16,1 km/h (3 Bft) 95,74 %
15.01.2019 08:56 3,8 C 3,9 C 2,8 C 97 % 1017,0 hPa 0,0 l/m 0 min 0 min 19 W/m 9,7 km/h (2 Bft) 97,87 %
15.01.2019 08:58 3,8 C 3,9 C 2,8 C 97 % 1016,9 hPa 0,0 l/m 0 min 0 min 22 W/m 9,7 km/h (2 Bft) 97,83 %
15.01.2019 09:00 3,8 C 3,9 C 2,8 C 97 % 1016,8 hPa 0,0 l/m 0 min 0 min 24 W/m 12,9 km/h (3 Bft) 95,74 %
15.01.2019 09:02 3,8 C 3,9 C 2,8 C 97 % 1016,8 hPa 0,0 l/m 0 min 0 min 27 W/m 16,1 km/h (3 Bft) 93,62 %
15.01.2019 09:04 3,8 C 3,9 C 2,8 C 97 % 1016,8 hPa 0,0 l/m 2 min 0 min 34 W/m 25,7 km/h (4 Bft) 89,36 %
15.01.2019 09:06 3,8 C 3,9 C 3,3 C 97 % 1016,8 hPa 0,0 l/m 0 min 0 min 33 W/m 16,1 km/h (3 Bft) 95,74 %
15.01.2019 09:08 3,9 C 3,9 C 2,8 C 97 % 1016,7 hPa 0,0 l/m 0 min 0 min 34 W/m 12,9 km/h (3 Bft) 95,74 %
15.01.2019 09:10 3,9 C 3,9 C 3,3 C 97 % 1016,7 hPa 0,0 l/m 0 min 0 min 37 W/m 16,1 km/h (3 Bft) 90,48 %
15.01.2019 09:12 3,9 C 3,9 C 3,3 C 97 % 1016,7 hPa 0,0 l/m 2 min 0 min 43 W/m 12,9 km/h (3 Bft) 95,74 %
15.01.2019 09:14 3,9 C 3,9 C 3,3 C 97 % 1016,7 hPa 0,0 l/m 2 min 0 min 46 W/m 9,7 km/h (2 Bft) 95,65 %
15.01.2019 09:16 3,9 C 3,9 C 3,3 C 97 % 1016,7 hPa 0,0 l/m 2 min 0 min 48 W/m 12,9 km/h (3 Bft) 95,74 %
15.01.2019 09:18 3,9 C 3,9 C 3,3 C 97 % 1016,7 hPa 0,0 l/m 2 min 0 min 52 W/m 6,4 km/h (2 Bft) 91,84 %
15.01.2019 09:20 3,9 C 3,9 C 3,3 C 97 % 1016,8 hPa 0,0 l/m 2 min 0 min 51 W/m 12,9 km/h (3 Bft) 95,74 %
15.01.2019 09:22 4,0 C 4,4 C 3,3 C 97 % 1016,8 hPa 0,0 l/m 0 min 0 min 49 W/m 12,9 km/h (3 Bft) 93,62 %
15.01.2019 09:24 4,1 C 4,4 C 3,3 C 97 % 1016,8 hPa 0,0 l/m 2 min 0 min 54 W/m 9,7 km/h (2 Bft) 97,87 %
15.01.2019 09:26 4,1 C 4,4 C 3,3 C 97 % 1016,8 hPa 0,0 l/m 0 min 0 min 54 W/m 19,3 km/h (3 Bft) 97,83 %
15.01.2019 09:28 4,1 C 4,4 C 3,3 C 97 % 1016,7 hPa 0,0 l/m 0 min 0 min 54 W/m 22,5 km/h (4 Bft) 97,96 %
15.01.2019 09:30 4,1 C 4,4 C 3,3 C 97 % 1016,7 hPa 0,0 l/m 0 min 0 min 54 W/m 12,9 km/h (3 Bft) 97,92 %
15.01.2019 09:32 4,2 C 4,4 C 3,3 C 97 % 1016,7 hPa 0,0 l/m 0 min 0 min 53 W/m 19,3 km/h (3 Bft) 97,92 %
15.01.2019 09:34 4,2 C 4,4 C 3,3 C 97 % 1016,7 hPa 0,0 l/m 0 min 0 min 52 W/m 12,9 km/h (3 Bft) 95,65 %
15.01.2019 09:36 4,2 C 4,4 C 3,9 C 97 % 1016,7 hPa 0,0 l/m 0 min 0 min 52 W/m 22,5 km/h (4 Bft) 97,92 %
15.01.2019 09:38 4,2 C 4,4 C 3,9 C 97 % 1016,8 hPa 0,0 l/m 0 min 0 min 49 W/m 12,9 km/h (3 Bft) 100,00 %
15.01.2019 09:40 4,3 C 4,4 C 3,9 C 97 % 1016,7 hPa 0,0 l/m 0 min 0 min 48 W/m 9,7 km/h (2 Bft) 97,87 %
15.01.2019 09:42 4,3 C 4,4 C 3,3 C 97 % 1016,7 hPa 0,0 l/m 0 min 0 min 47 W/m 19,3 km/h (3 Bft) 95,74 %
15.01.2019 09:44 4,3 C 4,4 C 3,3 C 97 % 1016,7 hPa 0,0 l/m 0 min 0 min 49 W/m 16,1 km/h (3 Bft) 97,87 %
15.01.2019 09:46 4,3 C 4,4 C 3,3 C 97 % 1016,7 hPa 0,0 l/m 0 min 0 min 53 W/m 16,1 km/h (3 Bft) 95,92 %
15.01.2019 09:48 4,3 C 5,0 C 3,3 C 97 % 1016,7 hPa 0,0 l/m 0 min 0 min 73 W/m 9,7 km/h (2 Bft) 97,87 %
15.01.2019 09:50 4,3 C 5,0 C 3,3 C 97 % 1016,8 hPa 0,0 l/m 2 min 0 min 82 W/m 12,9 km/h (3 Bft) 95,65 %
15.01.2019 09:52 4,4 C 5,0 C 3,9 C 97 % 1016,8 hPa 0,0 l/m 2 min 0 min 86 W/m 16,1 km/h (3 Bft) 97,87 %
15.01.2019 09:54 4,4 C 5,6 C 3,9 C 97 % 1016,8 hPa 0,0 l/m 2 min 0 min 101 W/m 25,7 km/h (4 Bft) 97,87 %
15.01.2019 09:56 4,4 C 5,6 C 3,9 C 97 % 1016,8 hPa 0,0 l/m 2 min 0 min 105 W/m 12,9 km/h (3 Bft) 95,74 %
15.01.2019 09:58 4,4 C 5,6 C 3,9 C 97 % 1016,8 hPa 0,0 l/m 2 min 0 min 107 W/m 12,9 km/h (3 Bft) 97,87 %
15.01.2019 10:00 4,5 C 5,6 C 3,9 C 97 % 1016,8 hPa 0,0 l/m 2 min 0 min 109 W/m 16,1 km/h (3 Bft) 97,83 %
15.01.2019 10:02 4,6 C 5,6 C 3,9 C 96 % 1016,8 hPa 0,0 l/m 2 min 0 min 99 W/m 16,1 km/h (3 Bft) 95,74 %
15.01.2019 10:04 4,6 C 5,6 C 3,9 C 96 % 1016,8 hPa 0,0 l/m 2 min 0 min 102 W/m 16,1 km/h (3 Bft) 95,74 %
15.01.2019 10:06 4,6 C 5,0 C 3,9 C 96 % 1016,8 hPa 0,0 l/m 0 min 0 min 90 W/m 12,9 km/h (3 Bft) 97,87 %
15.01.2019 10:08 4,7 C 5,0 C 3,9 C 96 % 1016,8 hPa 0,0 l/m 0 min 0 min 95 W/m 12,9 km/h (3 Bft) 95,74 %
15.01.2019 10:10 4,7 C 5,6 C 4,4 C 96 % 1016,8 hPa 0,0 l/m 0 min 0 min 95 W/m 9,7 km/h (2 Bft) 97,96 %
15.01.2019 10:12 4,7 C 5,6 C 4,4 C 96 % 1016,8 hPa 0,0 l/m 0 min 0 min 93 W/m 9,7 km/h (2 Bft) 95,65 %
15.01.2019 10:14 4,7 C 5,6 C 4,4 C 96 % 1016,9 hPa 0,0 l/m 0 min 0 min 91 W/m 16,1 km/h (3 Bft) 97,87 %
15.01.2019 10:16 4,8 C 5,6 C 4,4 C 96 % 1016,8 hPa 0,0 l/m 0 min 0 min 90 W/m 9,7 km/h (2 Bft) 97,87 %
15.01.2019 10:18 4,8 C 5,6 C 4,4 C 96 % 1016,8 hPa 0,0 l/m 0 min 0 min 97 W/m 16,1 km/h (3 Bft) 97,87 %
15.01.2019 10:20 4,8 C 5,6 C 4,4 C 96 % 1016,8 hPa 0,0 l/m 2 min 0 min 108 W/m 16,1 km/h (3 Bft) 93,62 %
15.01.2019 10:22 4,9 C 6,1 C 4,4 C 96 % 1016,8 hPa 0,0 l/m 2 min 0 min 113 W/m 12,9 km/h (3 Bft) 95,74 %
15.01.2019 10:24 4,9 C 6,1 C 4,4 C 96 % 1016,8 hPa 0,0 l/m 2 min 0 min 126 W/m 16,1 km/h (3 Bft) 97,83 %
15.01.2019 10:26 4,9 C 6,1 C 4,4 C 96 % 1016,8 hPa 0,0 l/m 2 min 0 min 128 W/m 9,7 km/h (2 Bft) 97,96 %
15.01.2019 10:28 4,9 C 6,1 C 4,4 C 96 % 1016,8 hPa 0,0 l/m 2 min 0 min 135 W/m 9,7 km/h (2 Bft) 97,87 %
15.01.2019 10:30 5,0 C 6,7 C 4,4 C 96 % 1016,8 hPa 0,0 l/m 2 min 0 min 148 W/m 12,9 km/h (3 Bft) 100,00 %
15.01.2019 10:32 5,1 C 6,7 C 4,4 C 96 % 1016,8 hPa 0,0 l/m 2 min 0 min 165 W/m 12,9 km/h (3 Bft) 95,65 %
15.01.2019 10:34 5,1 C 6,7 C 5,0 C 96 % 1016,8 hPa 0,0 l/m 2 min 0 min 145 W/m 9,7 km/h (2 Bft) 100,00 %
15.01.2019 10:36 5,2 C 6,1 C 5,0 C 96 % 1016,8 hPa 0,0 l/m 0 min 0 min 110 W/m 19,3 km/h (3 Bft) 100,00 %
15.01.2019 10:38 5,2 C 5,6 C 5,0 C 96 % 1016,8 hPa 0,0 l/m 0 min 0 min 104 W/m 9,7 km/h (2 Bft) 100,00 %
15.01.2019 10:40 5,2 C 5,6 C 5,0 C 96 % 1016,8 hPa 0,0 l/m 0 min 0 min 112 W/m 19,3 km/h (3 Bft) 97,87 %
15.01.2019 10:42 5,3 C 5,6 C 5,0 C 96 % 1016,8 hPa 0,0 l/m 0 min 0 min 106 W/m 12,9 km/h (3 Bft) 100,00 %
15.01.2019 10:44 5,3 C 5,6 C 5,0 C 96 % 1016,8 hPa 0,0 l/m 0 min 0 min 93 W/m 16,1 km/h (3 Bft) 100,00 %
15.01.2019 10:46 5,3 C 5,6 C 5,0 C 95 % 1016,8 hPa 0,0 l/m 0 min 0 min 82 W/m 9,7 km/h (2 Bft) 100,00 %
15.01.2019 10:48 5,3 C 5,6 C 5,0 C 95 % 1016,8 hPa 0,0 l/m 0 min 0 min 76 W/m 9,7 km/h (2 Bft) 100,00 %
15.01.2019 10:50 5,3 C 5,6 C 5,0 C 95 % 1016,8 hPa 0,0 l/m 0 min 0 min 76 W/m 16,1 km/h (3 Bft) 100,00 %
15.01.2019 10:52 5,4 C 5,6 C 5,0 C 95 % 1016,8 hPa 0,0 l/m 0 min 0 min 78 W/m 12,9 km/h (3 Bft) 100,00 %
15.01.2019 10:54 5,4 C 5,6 C 5,0 C 95 % 1016,8 hPa 0,0 l/m 0 min 0 min 84 W/m 12,9 km/h (3 Bft) 100,00 %
15.01.2019 10:56 5,4 C 5,6 C 5,0 C 95 % 1016,8 hPa 0,0 l/m 0 min 0 min 90 W/m 12,9 km/h (3 Bft) 100,00 %
15.01.2019 10:58 5,4 C 5,6 C 5,0 C 95 % 1016,9 hPa 0,0 l/m 0 min 0 min 90 W/m 12,9 km/h (3 Bft) 100,00 %
15.01.2019 11:00 5,4 C 5,6 C 5,0 C 95 % 1016,8 hPa 0,0 l/m 0 min 0 min 88 W/m 12,9 km/h (3 Bft) 100,00 %
15.01.2019 11:02 5,5 C 5,6 C 5,0 C 94 % 1016,8 hPa 0,0 l/m 0 min 0 min 84 W/m 16,1 km/h (3 Bft) 100,00 %
15.01.2019 11:04 5,5 C 5,6 C 5,0 C 94 % 1016,8 hPa 0,0 l/m 0 min 0 min 83 W/m 12,9 km/h (3 Bft) 100,00 %
15.01.2019 11:06 5,5 C 5,6 C 5,0 C 94 % 1016,8 hPa 0,0 l/m 0 min 0 min 85 W/m 16,1 km/h (3 Bft) 97,83 %
15.01.2019 11:08 5,5 C 5,6 C 5,0 C 94 % 1016,8 hPa 0,0 l/m 0 min 0 min 87 W/m 16,1 km/h (3 Bft) 100,00 %
15.01.2019 11:10 5,6 C 5,6 C 5,0 C 94 % 1016,8 hPa 0,0 l/m 0 min 0 min 89 W/m 12,9 km/h (3 Bft) 100,00 %
15.01.2019 11:12 5,6 C 6,1 C 5,0 C 94 % 1016,9 hPa 0,0 l/m 0 min 0 min 90 W/m 16,1 km/h (3 Bft) 100,00 %
15.01.2019 11:14 5,6 C 6,1 C 5,0 C 94 % 1016,8 hPa 0,0 l/m 0 min 0 min 92 W/m 16,1 km/h (3 Bft) 95,74 %
15.01.2019 11:16 5,7 C 6,1 C 5,0 C 94 % 1016,8 hPa 0,0 l/m 0 min 0 min 94 W/m 16,1 km/h (3 Bft) 100,00 %
15.01.2019 11:18 5,7 C 6,1 C 5,0 C 94 % 1016,8 hPa 0,0 l/m 0 min 0 min 100 W/m 22,5 km/h (4 Bft) 100,00 %
15.01.2019 11:20 5,7 C 6,1 C 5,6 C 93 % 1016,8 hPa 0,0 l/m 0 min 0 min 108 W/m 9,7 km/h (2 Bft) 100,00 %
15.01.2019 11:22 5,7 C 6,1 C 5,6 C 94 % 1016,8 hPa 0,0 l/m 0 min 0 min 113 W/m 9,7 km/h (2 Bft) 100,00 %
15.01.2019 11:24 5,8 C 6,1 C 5,6 C 93 % 1016,8 hPa 0,0 l/m 0 min 0 min 117 W/m 25,7 km/h (4 Bft) 100,00 %
15.01.2019 11:26 5,8 C 6,1 C 5,6 C 93 % 1016,8 hPa 0,0 l/m 0 min 0 min 118 W/m 19,3 km/h (3 Bft) 97,87 %
15.01.2019 11:28 5,8 C 6,1 C 5,6 C 93 % 1016,7 hPa 0,0 l/m 0 min 0 min 123 W/m 22,5 km/h (4 Bft) 97,87 %
15.01.2019 11:30 5,9 C 6,1 C 5,6 C 93 % 1016,7 hPa 0,0 l/m 0 min 0 min 124 W/m 19,3 km/h (3 Bft) 97,87 %
15.01.2019 11:32 5,9 C 6,1 C 5,6 C 93 % 1016,7 hPa 0,0 l/m 0 min 0 min 123 W/m 19,3 km/h (3 Bft) 100,00 %
15.01.2019 11:34 5,9 C 6,1 C 5,6 C 93 % 1016,7 hPa 0,0 l/m 0 min 0 min 127 W/m 19,3 km/h (3 Bft) 97,87 %
15.01.2019 11:36 5,9 C 6,1 C 5,6 C 93 % 1016,7 hPa 0,0 l/m 0 min 0 min 131 W/m 19,3 km/h (3 Bft) 95,65 %
15.01.2019 11:38 6,0 C 6,1 C 5,6 C 92 % 1016,6 hPa 0,0 l/m 0 min 0 min 132 W/m 16,1 km/h (3 Bft) 97,96 %
15.01.2019 11:40 6,1 C 6,7 C 5,6 C 92 % 1016,5 hPa 0,0 l/m 0 min 0 min 130 W/m 16,1 km/h (3 Bft) 97,87 %
15.01.2019 11:42 6,1 C 6,7 C 5,6 C 92 % 1016,6 hPa 0,0 l/m 0 min 0 min 130 W/m 16,1 km/h (3 Bft) 95,74 %
15.01.2019 11:44 6,1 C 6,7 C 5,6 C 92 % 1016,7 hPa 0,0 l/m 0 min 0 min 127 W/m 19,3 km/h (3 Bft) 97,87 %
15.01.2019 11:46 6,2 C 6,7 C 5,6 C 92 % 1016,6 hPa 0,0 l/m 0 min 0 min 127 W/m 19,3 km/h (3 Bft) 97,83 %
15.01.2019 11:48 6,2 C 6,7 C 5,6 C 91 % 1016,6 hPa 0,0 l/m 0 min 0 min 126 W/m 25,7 km/h (4 Bft) 100,00 %
15.01.2019 11:50 6,2 C 6,7 C 5,6 C 91 % 1016,6 hPa 0,0 l/m 0 min 0 min 123 W/m 25,7 km/h (4 Bft) 97,87 %
15.01.2019 11:52 6,2 C 6,7 C 5,6 C 91 % 1016,6 hPa 0,0 l/m 0 min 0 min 122 W/m 16,1 km/h (3 Bft) 97,87 %
15.01.2019 11:54 6,3 C 6,7 C 6,1 C 91 % 1016,6 hPa 0,0 l/m 0 min 0 min 120 W/m 9,7 km/h (2 Bft) 95,74 %
15.01.2019 11:56 6,3 C 6,7 C 6,1 C 91 % 1016,6 hPa 0,0 l/m 0 min 0 min 116 W/m 19,3 km/h (3 Bft) 93,62 %
15.01.2019 11:58 6,3 C 6,7 C 6,1 C 91 % 1016,5 hPa 0,0 l/m 0 min 0 min 113 W/m 19,3 km/h (3 Bft) 95,74 %
15.01.2019 12:00 6,4 C 6,7 C 6,1 C 91 % 1016,5 hPa 0,0 l/m 0 min 0 min 108 W/m 16,1 km/h (3 Bft) 95,65 %
15.01.2019 12:02 6,4 C 6,7 C 6,1 C 90 % 1016,5 hPa 0,0 l/m 0 min 0 min 104 W/m 22,5 km/h (4 Bft) 95,83 %
15.01.2019 12:04 6,4 C 6,7 C 6,7 C 90 % 1016,4 hPa 0,0 l/m 0 min 0 min 101 W/m 25,7 km/h (4 Bft) 95,74 %
15.01.2019 12:08 6,4 C 6,7 C 6,1 C 90 % 1016,4 hPa 0,0 l/m 0 min 0 min 100 W/m 29,0 km/h (5 Bft) 95,70 %
15.01.2019 12:10 6,4 C 6,7 C 6,1 C 90 % 1016,3 hPa 0,0 l/m 0 min 0 min 96 W/m 22,5 km/h (4 Bft) 95,74 %
15.01.2019 12:12 6,5 C 6,7 C 6,1 C 89 % 1016,3 hPa 0,0 l/m 0 min 0 min 92 W/m 16,1 km/h (3 Bft) 93,62 %
15.01.2019 12:14 6,5 C 6,7 C 6,1 C 89 % 1016,3 hPa 0,0 l/m 0 min 0 min 90 W/m 19,3 km/h (3 Bft) 91,49 %
15.01.2019 12:16 6,5 C 6,7 C 6,1 C 89 % 1016,4 hPa 0,0 l/m 0 min 0 min 93 W/m 22,5 km/h (4 Bft) 93,62 %
15.01.2019 12:18 6,5 C 6,7 C 6,1 C 89 % 1016,4 hPa 0,0 l/m 0 min 0 min 94 W/m 16,1 km/h (3 Bft) 91,30 %
15.01.2019 12:20 6,6 C 6,7 C 6,1 C 89 % 1016,3 hPa 0,0 l/m 0 min 0 min 98 W/m 19,3 km/h (3 Bft) 91,49 %
15.01.2019 12:22 6,6 C 6,7 C 6,1 C 89 % 1016,3 hPa 0,0 l/m 0 min 0 min 100 W/m 19,3 km/h (3 Bft) 91,49 %
15.01.2019 12:24 6,6 C 6,7 C 6,1 C 89 % 1016,3 hPa 0,0 l/m 0 min 0 min 99 W/m 16,1 km/h (3 Bft) 93,62 %
15.01.2019 12:26 6,6 C 6,7 C 6,1 C 89 % 1016,3 hPa 0,0 l/m 0 min 0 min 95 W/m 22,5 km/h (4 Bft) 93,62 %
15.01.2019 12:28 6,6 C 6,7 C 6,1 C 88 % 1016,3 hPa 0,0 l/m 0 min 0 min 91 W/m 19,3 km/h (3 Bft) 93,62 %
15.01.2019 12:30 6,6 C 6,7 C 6,1 C 88 % 1016,3 hPa 0,0 l/m 0 min 0 min 90 W/m 16,1 km/h (3 Bft) 93,48 %
15.01.2019 12:32 6,6 C 6,7 C 6,1 C 88 % 1016,2 hPa 0,0 l/m 0 min 0 min 88 W/m 22,5 km/h (4 Bft) 91,49 %
15.01.2019 12:34 6,6 C 6,7 C 6,1 C 88 % 1016,3 hPa 0,0 l/m 0 min 0 min 81 W/m 19,3 km/h (3 Bft) 95,74 %
15.01.2019 12:36 6,6 C 6,7 C 6,1 C 88 % 1016,2 hPa 0,0 l/m 0 min 0 min 78 W/m 25,7 km/h (4 Bft) 89,83 %
15.01.2019 12:38 6,7 C 6,7 C 6,1 C 87 % 1016,2 hPa 0,0 l/m 0 min 0 min 77 W/m 16,1 km/h (3 Bft) 96,55 %
15.01.2019 12:40 6,7 C 6,7 C 6,1 C 87 % 1016,2 hPa 0,0 l/m 0 min 0 min 77 W/m 16,1 km/h (3 Bft) 92,73 %
15.01.2019 12:42 6,7 C 6,7 C 6,1 C 87 % 1016,2 hPa 0,0 l/m 0 min 0 min 78 W/m 16,1 km/h (3 Bft) 93,62 %
15.01.2019 12:44 6,7 C 6,7 C 6,1 C 87 % 1016,1 hPa 0,0 l/m 0 min 0 min 82 W/m 22,5 km/h (4 Bft) 93,62 %
15.01.2019 12:46 6,7 C 6,7 C 6,1 C 86 % 1016,1 hPa 0,0 l/m 0 min 0 min 84 W/m 19,3 km/h (3 Bft) 93,62 %
15.01.2019 12:48 6,7 C 6,7 C 6,1 C 87 % 1016,1 hPa 0,0 l/m 0 min 0 min 88 W/m 22,5 km/h (4 Bft) 95,74 %
15.01.2019 12:50 6,7 C 6,7 C 6,1 C 86 % 1016,1 hPa 0,0 l/m 0 min 0 min 90 W/m 16,1 km/h (3 Bft) 97,87 %
15.01.2019 12:52 6,7 C 6,7 C 6,1 C 86 % 1016,1 hPa 0,0 l/m 0 min 0 min 92 W/m 19,3 km/h (3 Bft) 100,00 %
15.01.2019 12:54 6,7 C 6,7 C 6,1 C 86 % 1016,1 hPa 0,0 l/m 0 min 0 min 91 W/m 16,1 km/h (3 Bft) 100,00 %
15.01.2019 12:56 6,8 C 6,7 C 6,1 C 86 % 1016,1 hPa 0,0 l/m 0 min 0 min 80 W/m 9,7 km/h (2 Bft) 95,74 %
15.01.2019 12:58 6,8 C 6,7 C 6,1 C 86 % 1016,1 hPa 0,0 l/m 0 min 0 min 73 W/m 9,7 km/h (2 Bft) 100,00 %
15.01.2019 13:00 6,8 C 6,7 C 6,1 C 86 % 1016,1 hPa 0,0 l/m 0 min 0 min 72 W/m 12,9 km/h (3 Bft) 100,00 %
15.01.2019 13:02 6,8 C 6,7 C 6,1 C 85 % 1016,1 hPa 0,0 l/m 0 min 0 min 70 W/m 16,1 km/h (3 Bft) 100,00 %
15.01.2019 13:04 6,8 C 6,7 C 6,1 C 85 % 1016,1 hPa 0,0 l/m 0 min 0 min 74 W/m 16,1 km/h (3 Bft) 95,65 %
15.01.2019 13:06 6,8 C 6,7 C 6,1 C 85 % 1016,1 hPa 0,0 l/m 0 min 0 min 79 W/m 22,5 km/h (4 Bft) 100,00 %
15.01.2019 13:08 6,8 C 6,7 C 6,1 C 85 % 1016,0 hPa 0,0 l/m 0 min 0 min 88 W/m 22,5 km/h (4 Bft) 100,00 %
15.01.2019 13:10 6,8 C 6,7 C 6,1 C 85 % 1016,0 hPa 0,0 l/m 0 min 0 min 96 W/m 19,3 km/h (3 Bft) 97,87 %
15.01.2019 13:12 6,8 C 6,7 C 6,7 C 85 % 1016,0 hPa 0,0 l/m 0 min 0 min 87 W/m 12,9 km/h (3 Bft) 100,00 %
15.01.2019 13:14 6,8 C 6,7 C 6,1 C 85 % 1016,0 hPa 0,0 l/m 0 min 0 min 81 W/m 16,1 km/h (3 Bft) 100,00 %
15.01.2019 13:16 6,9 C 6,7 C 6,7 C 85 % 1016,0 hPa 0,0 l/m 0 min 0 min 84 W/m 16,1 km/h (3 Bft) 100,00 %
15.01.2019 13:18 6,9 C 6,7 C 6,1 C 85 % 1015,9 hPa 0,0 l/m 0 min 0 min 86 W/m 16,1 km/h (3 Bft) 97,87 %
15.01.2019 13:20 6,9 C 6,7 C 6,1 C 85 % 1015,9 hPa 0,0 l/m 0 min 0 min 99 W/m 16,1 km/h (3 Bft) 100,00 %
15.01.2019 13:22 6,9 C 6,7 C 6,7 C 85 % 1015,9 hPa 0,0 l/m 0 min 0 min 113 W/m 25,7 km/h (4 Bft) 97,87 %
15.01.2019 13:24 6,9 C 6,7 C 6,7 C 85 % 1015,9 hPa 0,0 l/m 0 min 0 min 110 W/m 19,3 km/h (3 Bft) 97,96 %
15.01.2019 13:26 6,9 C 6,7 C 6,7 C 85 % 1015,9 hPa 0,0 l/m 0 min 0 min 100 W/m 19,3 km/h (3 Bft) 100,00 %
15.01.2019 13:28 6,9 C 7,2 C 6,7 C 85 % 1015,8 hPa 0,0 l/m 0 min 0 min 116 W/m 12,9 km/h (3 Bft) 100,00 %
15.01.2019 13:30 6,9 C 7,2 C 6,7 C 85 % 1015,9 hPa 0,0 l/m 0 min 0 min 109 W/m 12,9 km/h (3 Bft) 97,83 %
15.01.2019 13:32 7,0 C 7,2 C 6,7 C 85 % 1015,9 hPa 0,0 l/m 0 min 0 min 114 W/m 19,3 km/h (3 Bft) 100,00 %
15.01.2019 13:34 7,0 C 7,2 C 6,7 C 85 % 1015,9 hPa 0,0 l/m 0 min 0 min 115 W/m 22,5 km/h (4 Bft) 100,00 %
15.01.2019 13:36 7,0 C 7,2 C 6,7 C 85 % 1015,8 hPa 0,0 l/m 0 min 0 min 110 W/m 19,3 km/h (3 Bft) 100,00 %
15.01.2019 13:38 7,1 C 7,2 C 6,7 C 85 % 1015,8 hPa 0,0 l/m 0 min 0 min 106 W/m 16,1 km/h (3 Bft) 100,00 %
15.01.2019 13:40 7,1 C 7,2 C 6,7 C 85 % 1015,8 hPa 0,0 l/m 0 min 0 min 93 W/m 19,3 km/h (3 Bft) 100,00 %
15.01.2019 13:42 7,1 C 7,2 C 6,7 C 85 % 1015,8 hPa 0,0 l/m 0 min 0 min 79 W/m 19,3 km/h (3 Bft) 100,00 %
15.01.2019 13:44 7,1 C 7,2 C 6,7 C 85 % 1015,8 hPa 0,0 l/m 0 min 0 min 68 W/m 9,7 km/h (2 Bft) 100,00 %
15.01.2019 13:46 7,1 C 6,7 C 6,7 C 85 % 1015,8 hPa 0,0 l/m 0 min 0 min 67 W/m 16,1 km/h (3 Bft) 100,00 %
15.01.2019 13:48 7,1 C 6,7 C 6,7 C 85 % 1015,8 hPa 0,0 l/m 0 min 0 min 70 W/m 12,9 km/h (3 Bft) 100,00 %
15.01.2019 13:50 7,1 C 6,7 C 6,7 C 85 % 1015,8 hPa 0,0 l/m 0 min 0 min 81 W/m 35,4 km/h (5 Bft) 97,87 %
15.01.2019 13:52 7,1 C 6,7 C 6,7 C 85 % 1015,7 hPa 0,0 l/m 0 min 0 min 90 W/m 19,3 km/h (3 Bft) 100,00 %
15.01.2019 13:54 7,1 C 7,2 C 6,7 C 85 % 1015,6 hPa 0,0 l/m 0 min 0 min 106 W/m 29,0 km/h (5 Bft) 100,00 %
15.01.2019 13:56 7,1 C 7,2 C 6,7 C 84 % 1015,7 hPa 0,0 l/m 0 min 0 min 111 W/m 22,5 km/h (4 Bft) 97,83 %
15.01.2019 13:58 7,1 C 7,2 C 6,7 C 84 % 1015,6 hPa 0,0 l/m 0 min 0 min 100 W/m 19,3 km/h (3 Bft) 100,00 %
15.01.2019 14:00 7,1 C 7,2 C 6,7 C 84 % 1015,5 hPa 0,0 l/m 0 min 0 min 89 W/m 22,5 km/h (4 Bft) 100,00 %
15.01.2019 14:02 7,1 C 7,2 C 6,7 C 84 % 1015,6 hPa 0,0 l/m 0 min 0 min 90 W/m 25,7 km/h (4 Bft) 100,00 %
15.01.2019 14:04 7,1 C 6,7 C 6,1 C 84 % 1015,5 hPa 0,0 l/m 0 min 0 min 94 W/m 19,3 km/h (3 Bft) 100,00 %
15.01.2019 14:06 7,1 C 7,2 C 6,7 C 84 % 1015,6 hPa 0,0 l/m 0 min 0 min 119 W/m 16,1 km/h (3 Bft) 93,62 %
15.01.2019 14:08 7,1 C 7,2 C 6,7 C 84 % 1015,5 hPa 0,0 l/m 0 min 0 min 104 W/m 16,1 km/h (3 Bft) 97,87 %
15.01.2019 14:10 7,1 C 6,7 C 6,7 C 84 % 1015,5 hPa 0,0 l/m 0 min 0 min 70 W/m 16,1 km/h (3 Bft) 100,00 %
15.01.2019 14:12 7,1 C 6,7 C 6,1 C 84 % 1015,4 hPa 0,0 l/m 0 min 0 min 55 W/m 22,5 km/h (4 Bft) 100,00 %
15.01.2019 14:14 7,1 C 6,7 C 6,1 C 84 % 1015,5 hPa 0,0 l/m 0 min 0 min 50 W/m 19,3 km/h (3 Bft) 100,00 %
15.01.2019 14:16 7,1 C 6,7 C 6,1 C 84 % 1015,5 hPa 0,0 l/m 0 min 0 min 53 W/m 25,7 km/h (4 Bft) 98,00 %
15.01.2019 14:18 7,1 C 6,7 C 6,1 C 84 % 1015,4 hPa 0,0 l/m 0 min 0 min 52 W/m 19,3 km/h (3 Bft) 100,00 %
15.01.2019 14:20 7,1 C 6,7 C 6,1 C 84 % 1015,4 hPa 0,0 l/m 0 min 0 min 41 W/m 22,5 km/h (4 Bft) 100,00 %
15.01.2019 14:22 7,1 C 6,7 C 6,1 C 84 % 1015,4 hPa 0,0 l/m 0 min 0 min 38 W/m 25,7 km/h (4 Bft) 100,00 %
15.01.2019 14:24 7,1 C 6,7 C 6,1 C 84 % 1015,2 hPa 0,0 l/m 0 min 0 min 41 W/m 25,7 km/h (4 Bft) 100,00 %
15.01.2019 14:26 7,0 C 6,7 C 6,1 C 84 % 1015,3 hPa 0,0 l/m 0 min 0 min 40 W/m 16,1 km/h (3 Bft) 100,00 %
15.01.2019 14:28 7,0 C 6,7 C 6,1 C 85 % 1015,3 hPa 0,0 l/m 0 min 0 min 43 W/m 25,7 km/h (4 Bft) 100,00 %
15.01.2019 14:30 7,0 C 6,7 C 6,1 C 85 % 1015,3 hPa 0,0 l/m 0 min 0 min 46 W/m 22,5 km/h (4 Bft) 100,00 %
15.01.2019 14:32 7,0 C 6,7 C 6,1 C 85 % 1015,3 hPa 0,0 l/m 0 min 0 min 50 W/m 19,3 km/h (3 Bft) 95,65 %
15.01.2019 14:34 6,9 C 6,7 C 6,1 C 85 % 1015,3 hPa 0,0 l/m 0 min 0 min 46 W/m 19,3 km/h (3 Bft) 95,74 %
15.01.2019 14:36 6,9 C 6,7 C 6,1 C 85 % 1015,4 hPa 0,0 l/m 0 min 0 min 45 W/m 19,3 km/h (3 Bft) 98,11 %
15.01.2019 14:38 6,9 C 6,7 C 6,1 C 85 % 1015,3 hPa 0,0 l/m 0 min 0 min 46 W/m 16,1 km/h (3 Bft) 97,56 %
15.01.2019 14:40 6,9 C 6,7 C 6,1 C 85 % 1015,4 hPa 0,0 l/m 0 min 0 min 39 W/m 12,9 km/h (3 Bft) 97,87 %
15.01.2019 14:42 6,9 C 6,7 C 6,1 C 85 % 1015,3 hPa 0,0 l/m 0 min 0 min 32 W/m 22,5 km/h (4 Bft) 96,36 %
15.01.2019 14:44 6,9 C 6,7 C 6,1 C 85 % 1015,3 hPa 0,0 l/m 0 min 0 min 30 W/m 12,9 km/h (3 Bft) 98,00 %
15.01.2019 14:46 6,9 C 6,7 C 6,1 C 85 % 1015,4 hPa 0,0 l/m 0 min 0 min 33 W/m 16,1 km/h (3 Bft) 97,87 %
15.01.2019 14:48 6,9 C 6,7 C 6,1 C 85 % 1015,4 hPa 0,0 l/m 0 min 0 min 35 W/m 9,7 km/h (2 Bft) 95,65 %
15.01.2019 14:50 6,9 C 6,7 C 6,1 C 85 % 1015,5 hPa 0,0 l/m 0 min 0 min 37 W/m 12,9 km/h (3 Bft) 94,44 %
15.01.2019 14:52 6,8 C 6,7 C 6,1 C 85 % 1015,4 hPa 0,0 l/m 0 min 0 min 40 W/m 16,1 km/h (3 Bft) 95,74 %
15.01.2019 14:54 6,8 C 6,7 C 5,6 C 85 % 1015,4 hPa 0,0 l/m 0 min 0 min 36 W/m 19,3 km/h (3 Bft) 96,36 %
15.01.2019 14:56 6,8 C 6,1 C 5,6 C 86 % 1015,4 hPa 0,0 l/m 0 min 0 min 33 W/m 16,1 km/h (3 Bft) 93,62 %
15.01.2019 14:58 6,8 C 6,1 C 5,6 C 86 % 1015,4 hPa 0,0 l/m 0 min 0 min 25 W/m 16,1 km/h (3 Bft) 90,00 %
15.01.2019 15:00 6,8 C 6,1 C 5,6 C 86 % 1015,4 hPa 0,0 l/m 0 min 0 min 24 W/m 19,3 km/h (3 Bft) 97,14 %
15.01.2019 15:02 6,8 C 6,1 C 5,6 C 86 % 1015,4 hPa 0,0 l/m 0 min 0 min 25 W/m 19,3 km/h (3 Bft) 85,11 %
15.01.2019 15:04 6,8 C 6,1 C 5,6 C 86 % 1015,5 hPa 0,0 l/m 0 min 0 min 24 W/m 12,9 km/h (3 Bft) 93,62 %
15.01.2019 15:06 6,8 C 6,1 C 5,6 C 86 % 1015,4 hPa 0,0 l/m 0 min 0 min 30 W/m 19,3 km/h (3 Bft) 92,73 %
15.01.2019 15:08 6,8 C 6,1 C 5,6 C 86 % 1015,4 hPa 0,0 l/m 0 min 0 min 37 W/m 9,7 km/h (2 Bft) 93,62 %
15.01.2019 15:10 6,8 C 6,1 C 5,6 C 86 % 1015,4 hPa 0,0 l/m 0 min 0 min 45 W/m 12,9 km/h (3 Bft) 93,62 %
15.01.2019 15:12 6,8 C 6,1 C 5,6 C 87 % 1015,3 hPa 0,0 l/m 0 min 0 min 46 W/m 12,9 km/h (3 Bft) 95,65 %
15.01.2019 15:14 6,8 C 6,1 C 5,6 C 87 % 1015,3 hPa 0,0 l/m 0 min 0 min 47 W/m 16,1 km/h (3 Bft) 96,00 %
15.01.2019 15:16 6,8 C 6,1 C 5,6 C 87 % 1015,2 hPa 0,0 l/m 0 min 0 min 47 W/m 12,9 km/h (3 Bft) 95,74 %
15.01.2019 15:18 6,7 C 6,1 C 5,6 C 87 % 1015,2 hPa 0,0 l/m 0 min 0 min 44 W/m 9,7 km/h (2 Bft) 93,62 %
15.01.2019 15:20 6,7 C 6,1 C 5,6 C 87 % 1015,2 hPa 0,0 l/m 0 min 0 min 42 W/m 16,1 km/h (3 Bft) 91,43 %
15.01.2019 15:22 6,7 C 6,1 C 5,6 C 87 % 1015,2 hPa 0,0 l/m 0 min 0 min 42 W/m 19,3 km/h (3 Bft) 95,74 %
15.01.2019 15:24 6,7 C 6,1 C 5,6 C 87 % 1015,2 hPa 0,0 l/m 0 min 0 min 42 W/m 12,9 km/h (3 Bft) 96,36 %
15.01.2019 15:26 6,7 C 6,1 C 5,6 C 87 % 1015,2 hPa 0,0 l/m 0 min 0 min 41 W/m 22,5 km/h (4 Bft) 95,74 %
15.01.2019 15:28 6,7 C 6,1 C 5,6 C 87 % 1015,2 hPa 0,0 l/m 0 min 0 min 38 W/m 29,0 km/h (5 Bft) 93,62 %
15.01.2019 15:30 6,7 C 6,1 C 5,6 C 87 % 1015,2 hPa 0,0 l/m 0 min 0 min 37 W/m 16,1 km/h (3 Bft) 93,62 %
15.01.2019 15:32 6,7 C 6,1 C 5,6 C 87 % 1015,2 hPa 0,0 l/m 0 min 0 min 34 W/m 16,1 km/h (3 Bft) 95,74 %
15.01.2019 15:34 6,7 C 6,1 C 5,6 C 87 % 1015,1 hPa 0,0 l/m 0 min 0 min 32 W/m 12,9 km/h (3 Bft) 96,00 %
15.01.2019 15:36 6,7 C 6,1 C 5,6 C 87 % 1015,1 hPa 0,0 l/m 0 min 0 min 30 W/m 9,7 km/h (2 Bft) 93,48 %
15.01.2019 15:38 6,7 C 6,1 C 5,6 C 87 % 1015,1 hPa 0,0 l/m 0 min 0 min 27 W/m 12,9 km/h (3 Bft) 95,74 %
15.01.2019 15:40 6,7 C 6,1 C 5,6 C 87 % 1015,1 hPa 0,0 l/m 0 min 0 min 27 W/m 16,1 km/h (3 Bft) 97,22 %
15.01.2019 15:42 6,7 C 6,1 C 5,6 C 87 % 1015,1 hPa 0,0 l/m 0 min 0 min 26 W/m 16,1 km/h (3 Bft) 93,48 %
15.01.2019 15:44 6,7 C 6,1 C 5,6 C 87 % 1015,1 hPa 0,0 l/m 0 min 0 min 23 W/m 16,1 km/h (3 Bft) 97,87 %
15.01.2019 15:46 6,7 C 6,1 C 5,6 C 87 % 1015,1 hPa 0,0 l/m 0 min 0 min 23 W/m 12,9 km/h (3 Bft) 95,74 %
15.01.2019 15:48 6,7 C 6,1 C 5,6 C 87 % 1015,1 hPa 0,0 l/m 0 min 0 min 23 W/m 12,9 km/h (3 Bft) 97,87 %
15.01.2019 15:50 6,7 C 6,1 C 5,6 C 87 % 1015,1 hPa 0,0 l/m 0 min 0 min 21 W/m 16,1 km/h (3 Bft) 97,87 %
15.01.2019 15:52 6,7 C 6,1 C 5,6 C 87 % 1015,1 hPa 0,0 l/m 0 min 0 min 20 W/m 16,1 km/h (3 Bft) 95,65 %
15.01.2019 15:54 6,7 C 6,1 C 5,6 C 87 % 1015,1 hPa 0,0 l/m 0 min 0 min 19 W/m 22,5 km/h (4 Bft) 97,87 %
15.01.2019 15:56 6,7 C 6,1 C 5,6 C 87 % 1015,1 hPa 0,0 l/m 0 min 0 min 18 W/m 19,3 km/h (3 Bft) 98,21 %
15.01.2019 15:58 6,7 C 6,1 C 5,6 C 87 % 1015,1 hPa 0,0 l/m 0 min 0 min 18 W/m 12,9 km/h (3 Bft) 97,96 %
15.01.2019 16:00 6,7 C 6,1 C 5,6 C 88 % 1015,1 hPa 0,0 l/m 0 min 0 min 18 W/m 9,7 km/h (2 Bft) 97,22 %
15.01.2019 16:02 6,7 C 6,1 C 5,6 C 88 % 1015,1 hPa 0,0 l/m 0 min 0 min 17 W/m 19,3 km/h (3 Bft) 95,74 %
15.01.2019 16:04 6,7 C 6,1 C 5,6 C 88 % 1015,1 hPa 0,0 l/m 0 min 0 min 16 W/m 19,3 km/h (3 Bft) 96,36 %
15.01.2019 16:06 6,7 C 6,1 C 5,6 C 88 % 1015,1 hPa 0,0 l/m 0 min 0 min 14 W/m 9,7 km/h (2 Bft) 96,00 %
15.01.2019 16:08 6,7 C 6,1 C 5,6 C 88 % 1015,1 hPa 0,0 l/m 0 min 0 min 14 W/m 12,9 km/h (3 Bft) 97,87 %
15.01.2019 16:10 6,7 C 6,1 C 5,6 C 88 % 1015,1 hPa 0,0 l/m 0 min 0 min 14 W/m 9,7 km/h (2 Bft) 100,00 %
15.01.2019 16:12 6,7 C 6,1 C 5,6 C 88 % 1015,1 hPa 0,0 l/m 0 min 0 min 13 W/m 9,7 km/h (2 Bft) 100,00 %
15.01.2019 16:14 6,7 C 6,1 C 5,6 C 88 % 1015,0 hPa 0,0 l/m 0 min 0 min 12 W/m 16,1 km/h (3 Bft) 100,00 %
15.01.2019 16:16 6,7 C 6,1 C 5,6 C 88 % 1015,0 hPa 0,0 l/m 0 min 0 min 11 W/m 19,3 km/h (3 Bft) 100,00 %
15.01.2019 16:18 6,7 C 6,1 C 5,6 C 88 % 1015,1 hPa 0,0 l/m 0 min 0 min 11 W/m 9,7 km/h (2 Bft) 97,87 %
15.01.2019 16:20 6,7 C 6,1 C 5,6 C 88 % 1015,1 hPa 0,0 l/m 0 min 0 min 11 W/m 12,9 km/h (3 Bft) 97,87 %
15.01.2019 16:22 6,7 C 6,1 C 5,6 C 88 % 1015,1 hPa 0,0 l/m 0 min 0 min 12 W/m 22,5 km/h (4 Bft) 100,00 %
15.01.2019 16:24 6,7 C 6,1 C 5,6 C 88 % 1015,0 hPa 0,0 l/m 0 min 0 min 12 W/m 19,3 km/h (3 Bft) 100,00 %
15.01.2019 16:26 6,7 C 6,1 C 5,6 C 88 % 1015,1 hPa 0,0 l/m 0 min 0 min 10 W/m 19,3 km/h (3 Bft) 100,00 %
15.01.2019 16:28 6,7 C 6,1 C 5,6 C 88 % 1015,1 hPa 0,0 l/m 0 min 0 min 9 W/m 19,3 km/h (3 Bft) 100,00 %
15.01.2019 16:30 6,7 C 6,1 C 5,6 C 88 % 1015,0 hPa 0,0 l/m 0 min 0 min 8 W/m 16,1 km/h (3 Bft) 100,00 %
15.01.2019 16:32 6,7 C 6,1 C 5,6 C 88 % 1015,1 hPa 0,0 l/m 0 min 0 min 7 W/m 16,1 km/h (3 Bft) 100,00 %
15.01.2019 16:34 6,7 C 6,1 C 5,6 C 88 % 1015,1 hPa 0,0 l/m 0 min 0 min 8 W/m 6,4 km/h (2 Bft) 98,18 %
15.01.2019 16:36 6,6 C 6,1 C 5,6 C 88 % 1015,0 hPa 0,0 l/m 0 min 0 min 8 W/m 16,1 km/h (3 Bft) 100,00 %
15.01.2019 16:38 6,7 C 6,1 C 5,6 C 88 % 1015,1 hPa 0,0 l/m 0 min 0 min 7 W/m 12,9 km/h (3 Bft) 100,00 %
15.01.2019 16:40 6,7 C 6,1 C 5,6 C 88 % 1015,0 hPa 0,0 l/m 0 min 0 min 7 W/m 12,9 km/h (3 Bft) 100,00 %
15.01.2019 16:42 6,7 C 6,1 C 5,6 C 88 % 1015,0 hPa 0,0 l/m 0 min 0 min 7 W/m 12,9 km/h (3 Bft) 100,00 %
15.01.2019 16:44 6,6 C 6,1 C 5,6 C 88 % 1015,0 hPa 0,0 l/m 0 min 0 min 7 W/m 9,7 km/h (2 Bft) 100,00 %
15.01.2019 16:46 6,6 C 6,1 C 5,6 C 88 % 1014,9 hPa 0,0 l/m 0 min 0 min 7 W/m 16,1 km/h (3 Bft) 100,00 %
15.01.2019 16:48 6,6 C 6,1 C 5,6 C 88 % 1015,0 hPa 0,0 l/m 0 min 0 min 5 W/m 9,7 km/h (2 Bft) 97,87 %
15.01.2019 16:50 6,6 C 6,1 C 5,6 C 88 % 1014,9 hPa 0,0 l/m 0 min 0 min 4 W/m 6,4 km/h (2 Bft) 95,65 %
15.01.2019 16:52 6,6 C 6,1 C 5,6 C 88 % 1015,0 hPa 0,0 l/m 0 min 0 min 0 W/m 12,9 km/h (3 Bft) 100,00 %
15.01.2019 16:54 6,6 C 6,1 C 5,6 C 88 % 1015,0 hPa 0,0 l/m 0 min 0 min 0 W/m 16,1 km/h (3 Bft) 100,00 %
15.01.2019 16:56 6,6 C 6,1 C 5,6 C 88 % 1014,9 hPa 0,0 l/m 0 min 0 min 0 W/m 19,3 km/h (3 Bft) 100,00 %
15.01.2019 16:58 6,6 C 6,1 C 5,6 C 89 % 1014,9 hPa 0,0 l/m 0 min 0 min 0 W/m 9,7 km/h (2 Bft) 98,18 %
15.01.2019 17:00 6,6 C 6,1 C 5,6 C 89 % 1014,9 hPa 0,0 l/m 0 min 0 min 0 W/m 9,7 km/h (2 Bft) 100,00 %
15.01.2019 17:02 6,6 C 6,1 C 5,6 C 89 % 1014,9 hPa 0,0 l/m 0 min 0 min 0 W/m 12,9 km/h (3 Bft) 97,37 %
15.01.2019 17:04 6,6 C 6,1 C 5,6 C 89 % 1014,9 hPa 0,0 l/m 0 min 0 min 0 W/m 9,7 km/h (2 Bft) 97,87 %
15.01.2019 17:06 6,6 C 6,1 C 5,6 C 89 % 1014,9 hPa 0,0 l/m 0 min 0 min 0 W/m 16,1 km/h (3 Bft) 97,87 %
15.01.2019 17:08 6,6 C 6,1 C 5,6 C 89 % 1015,0 hPa 0,0 l/m 0 min 0 min 0 W/m 19,3 km/h (3 Bft) 95,74 %
15.01.2019 17:10 6,5 C 6,1 C 5,6 C 89 % 1015,0 hPa 0,0 l/m 0 min 0 min 0 W/m 9,7 km/h (2 Bft) 97,87 %
15.01.2019 17:12 6,5 C 6,1 C 5,6 C 89 % 1015,0 hPa 0,0 l/m 0 min 0 min 0 W/m 19,3 km/h (3 Bft) 98,11 %
15.01.2019 17:14 6,5 C 6,1 C 5,6 C 89 % 1014,9 hPa 0,0 l/m 0 min 0 min 0 W/m 19,3 km/h (3 Bft) 97,87 %
15.01.2019 17:16 6,5 C 6,1 C 5,6 C 89 % 1014,9 hPa 0,0 l/m 0 min 0 min 0 W/m 9,7 km/h (2 Bft) 96,00 %
15.01.2019 17:18 6,5 C 6,1 C 5,6 C 89 % 1014,9 hPa 0,0 l/m 0 min 0 min 0 W/m 9,7 km/h (2 Bft) 97,87 %
15.01.2019 17:20 6,5 C 6,1 C 5,0 C 89 % 1014,9 hPa 0,0 l/m 0 min 0 min 0 W/m 9,7 km/h (2 Bft) 97,83 %
15.01.2019 17:22 6,4 C 6,1 C 5,6 C 89 % 1014,9 hPa 0,0 l/m 0 min 0 min 0 W/m 9,7 km/h (2 Bft) 97,87 %
15.01.2019 17:24 6,4 C 6,1 C 5,6 C 89 % 1014,9 hPa 0,0 l/m 0 min 0 min 0 W/m 9,7 km/h (2 Bft) 97,37 %
15.01.2019 17:26 6,4 C 6,1 C 5,0 C 89 % 1015,0 hPa 0,0 l/m 0 min 0 min 0 W/m 22,5 km/h (4 Bft) 97,83 %
15.01.2019 17:28 6,4 C 6,1 C 5,0 C 89 % 1015,0 hPa 0,0 l/m 0 min 0 min 0 W/m 16,1 km/h (3 Bft) 98,15 %
15.01.2019 17:30 6,4 C 6,1 C 5,0 C 89 % 1015,0 hPa 0,0 l/m 0 min 0 min 0 W/m 22,5 km/h (4 Bft) 98,00 %
15.01.2019 17:32 6,4 C 6,1 C 5,0 C 89 % 1014,9 hPa 0,0 l/m 0 min 0 min 0 W/m 19,3 km/h (3 Bft) 95,65 %
15.01.2019 17:34 6,4 C 6,1 C 5,0 C 89 % 1014,9 hPa 0,0 l/m 0 min 0 min 0 W/m 19,3 km/h (3 Bft) 100,00 %
15.01.2019 17:36 6,4 C 6,1 C 5,6 C 89 % 1014,9 hPa 0,0 l/m 0 min 0 min 0 W/m 12,9 km/h (3 Bft) 93,62 %
15.01.2019 17:38 6,4 C 6,1 C 5,6 C 89 % 1014,8 hPa 0,0 l/m 0 min 0 min 0 W/m 12,9 km/h (3 Bft) 97,83 %
15.01.2019 17:40 6,4 C 6,1 C 5,6 C 90 % 1014,8 hPa 0,0 l/m 0 min 0 min 0 W/m 16,1 km/h (3 Bft) 97,87 %
15.01.2019 17:42 6,4 C 6,1 C 5,6 C 90 % 1014,9 hPa 0,0 l/m 0 min 0 min 0 W/m 22,5 km/h (4 Bft) 98,18 %
15.01.2019 17:44 6,4 C 6,1 C 5,6 C 90 % 1015,0 hPa 0,0 l/m 0 min 0 min 0 W/m 12,9 km/h (3 Bft) 97,37 %
15.01.2019 17:46 6,4 C 6,1 C 5,6 C 90 % 1014,9 hPa 0,0 l/m 0 min 0 min 0 W/m 12,9 km/h (3 Bft) 100,00 %
15.01.2019 17:48 6,4 C 6,1 C 5,6 C 90 % 1015,0 hPa 0,0 l/m 0 min 0 min 0 W/m 19,3 km/h (3 Bft) 100,00 %
15.01.2019 17:50 6,4 C 6,1 C 5,6 C 90 % 1014,9 hPa 0,0 l/m 0 min 0 min 0 W/m 16,1 km/h (3 Bft) 100,00 %
15.01.2019 17:52 6,4 C 6,1 C 5,6 C 90 % 1014,9 hPa 0,0 l/m 0 min 0 min 0 W/m 19,3 km/h (3 Bft) 98,15 %
15.01.2019 17:54 6,4 C 6,1 C 5,6 C 90 % 1015,0 hPa 0,0 l/m 0 min 0 min 0 W/m 16,1 km/h (3 Bft) 97,87 %
15.01.2019 17:56 6,4 C 6,1 C 5,6 C 90 % 1014,9 hPa 0,0 l/m 0 min 0 min 0 W/m 9,7 km/h (2 Bft) 100,00 %
15.01.2019 17:58 6,4 C 6,1 C 5,6 C 90 % 1015,0 hPa 0,0 l/m 0 min 0 min 0 W/m 29,0 km/h (5 Bft) 97,37 %
15.01.2019 18:00 6,4 C 6,1 C 5,6 C 90 % 1015,0 hPa 0,0 l/m 0 min 0 min 0 W/m 16,1 km/h (3 Bft) 95,65 %
15.01.2019 18:02 6,4 C 6,1 C 5,6 C 90 % 1015,0 hPa 0,0 l/m 0 min 0 min 0 W/m 12,9 km/h (3 Bft) 95,74 %
15.01.2019 18:04 6,4 C 6,1 C 5,6 C 90 % 1015,0 hPa 0,0 l/m 0 min 0 min 0 W/m 19,3 km/h (3 Bft) 96,30 %
15.01.2019 18:08 6,4 C 6,1 C 5,0 C 90 % 1015,0 hPa 0,0 l/m 0 min 0 min 0 W/m 12,9 km/h (3 Bft) 97,85 %
15.01.2019 18:10 6,4 C 6,1 C 5,6 C 90 % 1015,0 hPa 0,0 l/m 0 min 0 min 0 W/m 16,1 km/h (3 Bft) 98,00 %
15.01.2019 18:12 6,4 C 6,1 C 5,6 C 90 % 1014,9 hPa 0,0 l/m 0 min 0 min 0 W/m 12,9 km/h (3 Bft) 97,87 %
15.01.2019 18:14 6,4 C 6,1 C 5,6 C 90 % 1014,9 hPa 0,0 l/m 0 min 0 min 0 W/m 12,9 km/h (3 Bft) 95,74 %
15.01.2019 18:16 6,4 C 6,1 C 5,6 C 90 % 1014,9 hPa 0,0 l/m 0 min 0 min 0 W/m 16,1 km/h (3 Bft) 97,87 %
15.01.2019 18:18 6,4 C 6,1 C 5,6 C 90 % 1014,8 hPa 0,0 l/m 0 min 0 min 0 W/m 16,1 km/h (3 Bft) 97,83 %
15.01.2019 18:20 6,4 C 6,1 C 5,6 C 90 % 1014,9 hPa 0,0 l/m 0 min 0 min 0 W/m 12,9 km/h (3 Bft) 94,74 %
15.01.2019 18:22 6,4 C 6,1 C 5,6 C 90 % 1014,8 hPa 0,0 l/m 0 min 0 min 0 W/m 19,3 km/h (3 Bft) 93,62 %
15.01.2019 18:24 6,4 C 6,1 C 5,0 C 90 % 1014,7 hPa 0,0 l/m 0 min 0 min 0 W/m 16,1 km/h (3 Bft) 95,65 %
15.01.2019 18:26 6,4 C 6,1 C 5,6 C 90 % 1014,8 hPa 0,0 l/m 0 min 0 min 0 W/m 12,9 km/h (3 Bft) 95,74 %
15.01.2019 18:28 6,4 C 6,1 C 5,6 C 90 % 1014,8 hPa 0,0 l/m 0 min 0 min 0 W/m 16,1 km/h (3 Bft) 95,74 %
15.01.2019 18:30 6,4 C 6,1 C 5,6 C 90 % 1014,9 hPa 0,0 l/m 0 min 0 min 0 W/m 16,1 km/h (3 Bft) 95,74 %
15.01.2019 18:32 6,4 C 6,1 C 5,6 C 90 % 1014,9 hPa 0,0 l/m 0 min 0 min 0 W/m 9,7 km/h (2 Bft) 93,62 %
15.01.2019 18:34 6,4 C 6,1 C 5,6 C 90 % 1014,8 hPa 0,0 l/m 0 min 0 min 0 W/m 6,4 km/h (2 Bft) 93,62 %
15.01.2019 18:36 6,4 C 6,1 C 5,0 C 90 % 1014,9 hPa 0,0 l/m 0 min 0 min 0 W/m 12,9 km/h (3 Bft) 95,65 %
15.01.2019 18:38 6,4 C 6,1 C 5,6 C 90 % 1014,9 hPa 0,0 l/m 0 min 0 min 0 W/m 19,3 km/h (3 Bft) 95,74 %
15.01.2019 18:40 6,4 C 6,1 C 5,6 C 90 % 1015,0 hPa 0,0 l/m 0 min 0 min 0 W/m 16,1 km/h (3 Bft) 95,74 %
15.01.2019 18:42 6,4 C 6,1 C 5,6 C 90 % 1015,0 hPa 0,0 l/m 0 min 0 min 0 W/m 16,1 km/h (3 Bft) 95,74 %
15.01.2019 18:44 6,4 C 6,1 C 5,6 C 90 % 1015,0 hPa 0,0 l/m 0 min 0 min 0 W/m 9,7 km/h (2 Bft) 96,30 %
15.01.2019 18:46 6,4 C 6,1 C 5,6 C 90 % 1015,0 hPa 0,0 l/m 0 min 0 min 0 W/m 12,9 km/h (3 Bft) 93,62 %
15.01.2019 18:48 6,4 C 6,1 C 5,6 C 90 % 1014,9 hPa 0,0 l/m 0 min 0 min 0 W/m 16,1 km/h (3 Bft) 95,74 %
15.01.2019 18:50 6,4 C 6,1 C 5,6 C 90 % 1015,0 hPa 0,0 l/m 0 min 0 min 0 W/m 9,7 km/h (2 Bft) 97,37 %
15.01.2019 18:52 6,4 C 6,1 C 5,6 C 90 % 1014,9 hPa 0,0 l/m 0 min 0 min 0 W/m 12,9 km/h (3 Bft) 93,75 %
15.01.2019 18:54 6,4 C 6,1 C 5,6 C 90 % 1014,9 hPa 0,0 l/m 0 min 0 min 0 W/m 12,9 km/h (3 Bft) 97,87 %
15.01.2019 18:56 6,4 C 6,1 C 5,6 C 90 % 1014,9 hPa 0,0 l/m 0 min 0 min 0 W/m 12,9 km/h (3 Bft) 95,74 %
15.01.2019 18:58 6,4 C 6,1 C 5,6 C 90 % 1015,0 hPa 0,0 l/m 0 min 0 min 0 W/m 12,9 km/h (3 Bft) 97,83 %
15.01.2019 19:00 6,4 C 6,1 C 5,6 C 90 % 1015,0 hPa 0,0 l/m 0 min 0 min 0 W/m 25,7 km/h (4 Bft) 97,87 %
15.01.2019 19:02 6,4 C 6,1 C 5,6 C 90 % 1014,9 hPa 0,0 l/m 0 min 0 min 0 W/m 12,9 km/h (3 Bft) 96,30 %
15.01.2019 19:04 6,4 C 6,1 C 5,6 C 90 % 1014,9 hPa 0,0 l/m 0 min 0 min 0 W/m 12,9 km/h (3 Bft) 98,00 %
15.01.2019 19:06 6,4 C 6,1 C 5,6 C 90 % 1014,8 hPa 0,0 l/m 0 min 0 min 0 W/m 12,9 km/h (3 Bft) 93,48 %
15.01.2019 19:08 6,4 C 6,1 C 5,6 C 90 % 1014,6 hPa 0,0 l/m 0 min 0 min 0 W/m 12,9 km/h (3 Bft) 97,87 %
15.01.2019 19:10 6,4 C 6,1 C 5,6 C 90 % 1014,6 hPa 0,0 l/m 0 min 0 min 0 W/m 9,7 km/h (2 Bft) 100,00 %
15.01.2019 19:12 6,4 C 6,1 C 5,6 C 90 % 1014,6 hPa 0,0 l/m 0 min 0 min 0 W/m 16,1 km/h (3 Bft) 100,00 %
15.01.2019 19:14 6,4 C 6,1 C 5,6 C 90 % 1014,6 hPa 0,0 l/m 0 min 0 min 0 W/m 16,1 km/h (3 Bft) 100,00 %
15.01.2019 19:16 6,4 C 6,1 C 5,6 C 90 % 1014,7 hPa 0,0 l/m 0 min 0 min 0 W/m 16,1 km/h (3 Bft) 100,00 %
15.01.2019 19:18 6,4 C 6,1 C 5,6 C 89 % 1014,6 hPa 0,0 l/m 0 min 0 min 0 W/m 16,1 km/h (3 Bft) 100,00 %
15.01.2019 19:20 6,4 C 6,1 C 5,6 C 89 % 1014,6 hPa 0,0 l/m 0 min 0 min 0 W/m 22,5 km/h (4 Bft) 100,00 %
15.01.2019 19:22 6,4 C 6,1 C 5,6 C 89 % 1014,7 hPa 0,0 l/m 0 min 0 min 0 W/m 16,1 km/h (3 Bft) 100,00 %
15.01.2019 19:24 6,4 C 6,1 C 5,6 C 89 % 1014,6 hPa 0,0 l/m 0 min 0 min 0 W/m 22,5 km/h (4 Bft) 100,00 %
15.01.2019 19:26 6,4 C 6,1 C 5,6 C 89 % 1014,6 hPa 0,0 l/m 0 min 0 min 0 W/m 12,9 km/h (3 Bft) 100,00 %
15.01.2019 19:28 6,4 C 6,1 C 5,6 C 89 % 1014,6 hPa 0,0 l/m 0 min 0 min 0 W/m 12,9 km/h (3 Bft) 100,00 %
15.01.2019 19:30 6,4 C 6,1 C 5,6 C 89 % 1014,6 hPa 0,0 l/m 0 min 0 min 0 W/m 22,5 km/h (4 Bft) 100,00 %
15.01.2019 19:32 6,4 C 6,1 C 5,6 C 89 % 1014,6 hPa 0,0 l/m 0 min 0 min 0 W/m 16,1 km/h (3 Bft) 100,00 %
15.01.2019 19:34 6,4 C 6,1 C 5,6 C 89 % 1014,6 hPa 0,0 l/m 0 min 0 min 0 W/m 19,3 km/h (3 Bft) 97,87 %
15.01.2019 19:36 6,4 C 6,1 C 5,6 C 89 % 1014,6 hPa 0,0 l/m 0 min 0 min 0 W/m 16,1 km/h (3 Bft) 92,00 %
15.01.2019 19:38 6,4 C 6,1 C 5,6 C 89 % 1014,6 hPa 0,0 l/m 0 min 0 min 0 W/m 16,1 km/h (3 Bft) 97,92 %
15.01.2019 19:40 6,4 C 6,1 C 5,6 C 89 % 1014,5 hPa 0,0 l/m 0 min 0 min 0 W/m 16,1 km/h (3 Bft) 97,83 %
15.01.2019 19:42 6,4 C 6,1 C 5,6 C 89 % 1014,6 hPa 0,0 l/m 0 min 0 min 0 W/m 16,1 km/h (3 Bft) 97,87 %
15.01.2019 19:44 6,4 C 6,1 C 5,6 C 89 % 1014,6 hPa 0,0 l/m 0 min 0 min 0 W/m 19,3 km/h (3 Bft) 97,87 %
15.01.2019 19:46 6,4 C 6,1 C 5,6 C 89 % 1014,6 hPa 0,0 l/m 0 min 0 min 0 W/m 16,1 km/h (3 Bft) 97,87 %
15.01.2019 19:48 6,4 C 6,1 C 5,6 C 89 % 1014,6 hPa 0,0 l/m 0 min 0 min 0 W/m 12,9 km/h (3 Bft) 97,14 %
15.01.2019 19:50 6,4 C 6,1 C 5,6 C 89 % 1014,6 hPa 0,0 l/m 0 min 0 min 0 W/m 9,7 km/h (2 Bft) 97,96 %
15.01.2019 19:52 6,4 C 6,1 C 5,6 C 89 % 1014,6 hPa 0,0 l/m 0 min 0 min 0 W/m 6,4 km/h (2 Bft) 95,92 %
15.01.2019 19:54 6,4 C 6,1 C 5,6 C 89 % 1014,6 hPa 0,0 l/m 0 min 0 min 0 W/m 12,9 km/h (3 Bft) 95,74 %
15.01.2019 19:56 6,4 C 6,1 C 5,6 C 89 % 1014,6 hPa 0,0 l/m 0 min 0 min 0 W/m 12,9 km/h (3 Bft) 97,83 %
15.01.2019 19:58 6,4 C 6,1 C 5,6 C 89 % 1014,6 hPa 0,0 l/m 0 min 0 min 0 W/m 9,7 km/h (2 Bft) 97,87 %
15.01.2019 20:00 6,4 C 6,1 C 5,6 C 89 % 1014,6 hPa 0,0 l/m 0 min 0 min 0 W/m 22,5 km/h (4 Bft) 95,74 %
15.01.2019 20:02 6,4 C 6,1 C 5,6 C 89 % 1014,7 hPa 0,0 l/m 0 min 0 min 0 W/m 16,1 km/h (3 Bft) 95,74 %
15.01.2019 20:04 6,4 C 6,1 C 5,6 C 89 % 1014,6 hPa 0,0 l/m 0 min 0 min 0 W/m 12,9 km/h (3 Bft) 97,87 %
15.01.2019 20:06 6,4 C 6,1 C 5,6 C 89 % 1014,6 hPa 0,0 l/m 0 min 0 min 0 W/m 16,1 km/h (3 Bft) 96,23 %
15.01.2019 20:08 6,4 C 6,1 C 5,6 C 89 % 1014,5 hPa 0,0 l/m 0 min 0 min 0 W/m 16,1 km/h (3 Bft) 95,74 %
15.01.2019 20:10 6,4 C 6,1 C 5,6 C 89 % 1014,5 hPa 0,0 l/m 0 min 0 min 0 W/m 16,1 km/h (3 Bft) 97,87 %
15.01.2019 20:12 6,4 C 6,1 C 5,6 C 89 % 1014,5 hPa 0,0 l/m 0 min 0 min 0 W/m 12,9 km/h (3 Bft) 97,87 %
15.01.2019 20:14 6,4 C 6,1 C 5,0 C 89 % 1014,5 hPa 0,0 l/m 0 min 0 min 0 W/m 9,7 km/h (2 Bft) 97,83 %
15.01.2019 20:16 6,4 C 6,1 C 5,6 C 89 % 1014,5 hPa 0,0 l/m 0 min 0 min 0 W/m 19,3 km/h (3 Bft) 91,49 %
15.01.2019 20:18 6,4 C 6,1 C 5,6 C 89 % 1014,4 hPa 0,0 l/m 0 min 0 min 0 W/m 12,9 km/h (3 Bft) 97,37 %
15.01.2019 20:20 6,4 C 6,1 C 5,6 C 89 % 1014,4 hPa 0,0 l/m 0 min 0 min 0 W/m 9,7 km/h (2 Bft) 97,96 %
15.01.2019 20:22 6,4 C 6,1 C 5,6 C 89 % 1014,4 hPa 0,0 l/m 0 min 0 min 0 W/m 12,9 km/h (3 Bft) 100,00 %
15.01.2019 20:24 6,4 C 6,1 C 5,6 C 89 % 1014,4 hPa 0,0 l/m 0 min 0 min 0 W/m 12,9 km/h (3 Bft) 97,87 %
15.01.2019 20:26 6,4 C 6,1 C 5,6 C 89 % 1014,4 hPa 0,0 l/m 0 min 0 min 0 W/m 9,7 km/h (2 Bft) 100,00 %
15.01.2019 20:28 6,4 C 6,1 C 5,6 C 89 % 1014,4 hPa 0,0 l/m 0 min 0 min 0 W/m 9,7 km/h (2 Bft) 100,00 %
15.01.2019 20:30 6,4 C 6,1 C 5,6 C 89 % 1014,5 hPa 0,0 l/m 0 min 0 min 0 W/m 9,7 km/h (2 Bft) 100,00 %
15.01.2019 20:32 6,4 C 6,1 C 5,6 C 89 % 1014,4 hPa 0,0 l/m 0 min 0 min 0 W/m 22,5 km/h (4 Bft) 95,74 %
15.01.2019 20:34 6,4 C 6,1 C 5,6 C 89 % 1014,4 hPa 0,0 l/m 0 min 0 min 0 W/m 9,7 km/h (2 Bft) 100,00 %
15.01.2019 20:36 6,4 C 6,1 C 5,6 C 89 % 1014,5 hPa 0,0 l/m 0 min 0 min 0 W/m 12,9 km/h (3 Bft) 100,00 %
15.01.2019 20:38 6,4 C 6,1 C 5,6 C 89 % 1014,5 hPa 0,0 l/m 0 min 0 min 0 W/m 12,9 km/h (3 Bft) 100,00 %
15.01.2019 20:40 6,4 C 6,1 C 5,6 C 89 % 1014,4 hPa 0,0 l/m 0 min 0 min 0 W/m 9,7 km/h (2 Bft) 97,87 %
15.01.2019 20:42 6,4 C 6,1 C 5,0 C 89 % 1014,5 hPa 0,0 l/m 0 min 0 min 0 W/m 6,4 km/h (2 Bft) 100,00 %
15.01.2019 20:44 6,4 C 6,1 C 5,6 C 89 % 1014,5 hPa 0,0 l/m 0 min 0 min 0 W/m 12,9 km/h (3 Bft) 100,00 %
15.01.2019 20:46 6,4 C 6,1 C 5,6 C 89 % 1014,5 hPa 0,0 l/m 0 min 0 min 0 W/m 6,4 km/h (2 Bft) 100,00 %
15.01.2019 20:48 6,4 C 6,1 C 5,6 C 89 % 1014,5 hPa 0,0 l/m 0 min 0 min 0 W/m 9,7 km/h (2 Bft) 100,00 %
15.01.2019 20:50 6,4 C 6,1 C 5,6 C 89 % 1014,4 hPa 0,0 l/m 0 min 0 min 0 W/m 6,4 km/h (2 Bft) 100,00 %
15.01.2019 20:52 6,4 C 6,1 C 5,6 C 89 % 1014,4 hPa 0,0 l/m 0 min 0 min 0 W/m 9,7 km/h (2 Bft) 100,00 %
15.01.2019 20:54 6,4 C 6,1 C 5,6 C 89 % 1014,4 hPa 0,0 l/m 0 min 0 min 0 W/m 12,9 km/h (3 Bft) 97,83 %
15.01.2019 20:56 6,4 C 6,1 C 5,6 C 89 % 1014,4 hPa 0,0 l/m 0 min 0 min 0 W/m 16,1 km/h (3 Bft) 100,00 %
15.01.2019 20:58 6,4 C 6,1 C 5,6 C 89 % 1014,4 hPa 0,0 l/m 0 min 0 min 0 W/m 16,1 km/h (3 Bft) 97,87 %
15.01.2019 21:00 6,4 C 6,1 C 5,6 C 89 % 1014,5 hPa 0,0 l/m 0 min 0 min 0 W/m 19,3 km/h (3 Bft) 97,62 %
15.01.2019 21:02 6,4 C 6,1 C 5,6 C 89 % 1014,4 hPa 0,0 l/m 0 min 0 min 0 W/m 19,3 km/h (3 Bft) 97,87 %
15.01.2019 21:04 6,4 C 6,1 C 5,6 C 89 % 1014,4 hPa 0,0 l/m 0 min 0 min 0 W/m 16,1 km/h (3 Bft) 100,00 %
15.01.2019 21:06 6,4 C 6,1 C 5,6 C 89 % 1014,4 hPa 0,0 l/m 0 min 0 min 0 W/m 22,5 km/h (4 Bft) 96,61 %
15.01.2019 21:08 6,5 C 6,1 C 5,6 C 89 % 1014,4 hPa 0,0 l/m 0 min 0 min 0 W/m 19,3 km/h (3 Bft) 97,14 %
15.01.2019 21:10 6,5 C 6,1 C 5,6 C 89 % 1014,4 hPa 0,0 l/m 0 min 0 min 0 W/m 19,3 km/h (3 Bft) 97,87 %
15.01.2019 21:12 6,5 C 6,1 C 5,6 C 89 % 1014,3 hPa 0,0 l/m 0 min 0 min 0 W/m 16,1 km/h (3 Bft) 98,00 %
15.01.2019 21:14 6,5 C 6,1 C 5,6 C 89 % 1014,3 hPa 0,0 l/m 0 min 0 min 0 W/m 19,3 km/h (3 Bft) 97,87 %
15.01.2019 21:16 6,5 C 6,1 C 5,6 C 89 % 1014,3 hPa 0,0 l/m 0 min 0 min 0 W/m 12,9 km/h (3 Bft) 93,48 %
15.01.2019 21:18 6,5 C 6,1 C 5,6 C 89 % 1014,3 hPa 0,0 l/m 0 min 0 min 0 W/m 9,7 km/h (2 Bft) 95,92 %
15.01.2019 21:20 6,5 C 6,1 C 5,6 C 89 % 1014,3 hPa 0,0 l/m 0 min 0 min 0 W/m 12,9 km/h (3 Bft) 95,74 %
15.01.2019 21:22 6,5 C 6,1 C 5,6 C 89 % 1014,3 hPa 0,0 l/m 0 min 0 min 0 W/m 25,7 km/h (4 Bft) 95,74 %
15.01.2019 21:24 6,5 C 6,1 C 5,6 C 89 % 1014,4 hPa 0,0 l/m 0 min 0 min 0 W/m 12,9 km/h (3 Bft) 93,62 %
15.01.2019 21:26 6,5 C 6,1 C 5,6 C 89 % 1014,3 hPa 0,0 l/m 0 min 0 min 0 W/m 32,2 km/h (5 Bft) 95,74 %
15.01.2019 21:28 6,5 C 6,1 C 5,6 C 89 % 1014,3 hPa 0,0 l/m 0 min 0 min 0 W/m 19,3 km/h (3 Bft) 95,65 %
15.01.2019 21:30 6,5 C 6,1 C 5,6 C 89 % 1014,4 hPa 0,0 l/m 0 min 0 min 0 W/m 22,5 km/h (4 Bft) 95,74 %
15.01.2019 21:32 6,5 C 6,1 C 5,6 C 89 % 1014,4 hPa 0,0 l/m 0 min 0 min 0 W/m 29,0 km/h (5 Bft) 93,62 %
15.01.2019 21:34 6,5 C 6,1 C 5,6 C 89 % 1014,3 hPa 0,0 l/m 0 min 0 min 0 W/m 29,0 km/h (5 Bft) 95,24 %
15.01.2019 21:36 6,5 C 6,1 C 5,6 C 89 % 1014,3 hPa 0,0 l/m 0 min 0 min 0 W/m 22,5 km/h (4 Bft) 94,83 %
15.01.2019 21:38 6,6 C 6,1 C 5,6 C 89 % 1014,5 hPa 0,0 l/m 0 min 0 min 0 W/m 35,4 km/h (5 Bft) 94,44 %
15.01.2019 21:40 6,5 C 6,1 C 5,6 C 89 % 1014,5 hPa 0,0 l/m 0 min 0 min 0 W/m 19,3 km/h (3 Bft) 95,65 %
15.01.2019 21:42 6,5 C 6,1 C 5,6 C 89 % 1014,5 hPa 0,0 l/m 0 min 0 min 0 W/m 22,5 km/h (4 Bft) 95,74 %
15.01.2019 21:44 6,6 C 6,1 C 5,6 C 89 % 1014,5 hPa 0,0 l/m 0 min 0 min 0 W/m 12,9 km/h (3 Bft) 96,00 %
15.01.2019 21:46 6,6 C 6,1 C 5,6 C 89 % 1014,4 hPa 0,0 l/m 0 min 0 min 0 W/m 12,9 km/h (3 Bft) 95,74 %
15.01.2019 21:48 6,5 C 6,1 C 5,6 C 89 % 1014,4 hPa 0,0 l/m 0 min 0 min 0 W/m 12,9 km/h (3 Bft) 95,74 %
15.01.2019 21:50 6,5 C 6,1 C 5,6 C 89 % 1014,5 hPa 0,0 l/m 0 min 0 min 0 W/m 12,9 km/h (3 Bft) 95,65 %
15.01.2019 21:52 6,5 C 6,1 C 5,6 C 89 % 1014,4 hPa 0,0 l/m 0 min 0 min 0 W/m 6,4 km/h (2 Bft) 95,74 %
15.01.2019 21:54 6,5 C 6,1 C 5,6 C 89 % 1014,6 hPa 0,0 l/m 0 min 0 min 0 W/m 22,5 km/h (4 Bft) 95,92 %
15.01.2019 21:56 6,5 C 6,1 C 5,6 C 89 % 1014,5 hPa 0,0 l/m 0 min 0 min 0 W/m 16,1 km/h (3 Bft) 93,62 %
15.01.2019 21:58 6,5 C 6,1 C 5,6 C 89 % 1014,5 hPa 0,0 l/m 0 min 0 min 0 W/m 9,7 km/h (2 Bft) 95,74 %
15.01.2019 22:00 6,5 C 6,1 C 5,6 C 89 % 1014,5 hPa 0,0 l/m 0 min 0 min 0 W/m 19,3 km/h (3 Bft) 95,74 %
15.01.2019 22:02 6,5 C 6,1 C 5,6 C 89 % 1014,5 hPa 0,0 l/m 0 min 0 min 0 W/m 19,3 km/h (3 Bft) 95,74 %
15.01.2019 22:04 6,5 C 6,1 C 5,6 C 89 % 1014,6 hPa 0,0 l/m 0 min 0 min 0 W/m 12,9 km/h (3 Bft) 93,48 %
15.01.2019 22:06 6,5 C 6,1 C 5,6 C 89 % 1014,5 hPa 0,0 l/m 0 min 0 min 0 W/m 19,3 km/h (3 Bft) 97,87 %
15.01.2019 22:08 6,5 C 6,1 C 5,6 C 89 % 1014,5 hPa 0,0 l/m 0 min 0 min 0 W/m 12,9 km/h (3 Bft) 97,87 %
15.01.2019 22:10 6,5 C 6,1 C 5,6 C 89 % 1014,5 hPa 0,0 l/m 0 min 0 min 0 W/m 16,1 km/h (3 Bft) 95,74 %
15.01.2019 22:12 6,5 C 6,1 C 5,6 C 89 % 1014,5 hPa 0,0 l/m 0 min 0 min 0 W/m 19,3 km/h (3 Bft) 94,29 %
15.01.2019 22:14 6,5 C 6,1 C 5,6 C 89 % 1014,5 hPa 0,0 l/m 0 min 0 min 0 W/m 12,9 km/h (3 Bft) 94,34 %
15.01.2019 22:16 6,5 C 6,1 C 5,6 C 89 % 1014,5 hPa 0,0 l/m 0 min 0 min 0 W/m 16,1 km/h (3 Bft) 95,74 %
15.01.2019 22:18 6,5 C 6,1 C 5,6 C 89 % 1014,5 hPa 0,0 l/m 0 min 0 min 0 W/m 12,9 km/h (3 Bft) 97,87 %
15.01.2019 22:20 6,5 C 6,1 C 5,6 C 89 % 1014,5 hPa 0,0 l/m 0 min 0 min 0 W/m 9,7 km/h (2 Bft) 95,74 %
15.01.2019 22:22 6,5 C 6,1 C 5,6 C 89 % 1014,5 hPa 0,0 l/m 0 min 0 min 0 W/m 12,9 km/h (3 Bft) 97,87 %
15.01.2019 22:24 6,5 C 6,1 C 5,6 C 89 % 1014,4 hPa 0,0 l/m 0 min 0 min 0 W/m 16,1 km/h (3 Bft) 97,87 %
15.01.2019 22:26 6,5 C 6,1 C 5,6 C 89 % 1014,4 hPa 0,0 l/m 0 min 0 min 0 W/m 9,7 km/h (2 Bft) 97,83 %
15.01.2019 22:28 6,5 C 6,1 C 5,6 C 89 % 1014,4 hPa 0,0 l/m 0 min 0 min 0 W/m 19,3 km/h (3 Bft) 97,87 %
15.01.2019 22:30 6,4 C 6,1 C 5,6 C 90 % 1014,4 hPa 0,0 l/m 0 min 0 min 0 W/m 12,9 km/h (3 Bft) 97,87 %
15.01.2019 22:32 6,4 C 6,1 C 5,6 C 90 % 1014,3 hPa 0,0 l/m 0 min 0 min 0 W/m 16,1 km/h (3 Bft) 95,74 %
15.01.2019 22:34 6,5 C 6,1 C 5,0 C 90 % 1014,3 hPa 0,0 l/m 0 min 0 min 0 W/m 16,1 km/h (3 Bft) 97,87 %
15.01.2019 22:36 6,4 C 6,1 C 5,6 C 90 % 1014,4 hPa 0,0 l/m 0 min 0 min 0 W/m 29,0 km/h (5 Bft) 98,00 %
15.01.2019 22:38 6,4 C 6,1 C 5,6 C 90 % 1014,4 hPa 0,0 l/m 0 min 0 min 0 W/m 19,3 km/h (3 Bft) 95,74 %
15.01.2019 22:40 6,4 C 6,1 C 5,6 C 90 % 1014,4 hPa 0,0 l/m 0 min 0 min 0 W/m 12,9 km/h (3 Bft) 95,74 %
15.01.2019 22:42 6,4 C 6,1 C 5,6 C 90 % 1014,3 hPa 0,0 l/m 0 min 0 min 0 W/m 12,9 km/h (3 Bft) 97,87 %
15.01.2019 22:44 6,4 C 6,1 C 5,6 C 90 % 1014,3 hPa 0,0 l/m 0 min 0 min 0 W/m 12,9 km/h (3 Bft) 95,74 %
15.01.2019 22:46 6,4 C 6,1 C 5,6 C 90 % 1014,2 hPa 0,0 l/m 0 min 0 min 0 W/m 16,1 km/h (3 Bft) 95,74 %
15.01.2019 22:48 6,4 C 6,1 C 5,6 C 90 % 1014,3 hPa 0,0 l/m 0 min 0 min 0 W/m 12,9 km/h (3 Bft) 97,92 %
15.01.2019 22:50 6,4 C 6,1 C 5,6 C 90 % 1014,1 hPa 0,0 l/m 0 min 0 min 0 W/m 16,1 km/h (3 Bft) 100,00 %
15.01.2019 22:52 6,5 C 6,1 C 5,6 C 90 % 1014,0 hPa 0,0 l/m 0 min 0 min 0 W/m 16,1 km/h (3 Bft) 100,00 %
15.01.2019 22:54 6,4 C 6,1 C 5,6 C 90 % 1014,1 hPa 0,0 l/m 0 min 0 min 0 W/m 12,9 km/h (3 Bft) 100,00 %
15.01.2019 22:56 6,4 C 6,1 C 5,6 C 90 % 1014,2 hPa 0,0 l/m 0 min 0 min 0 W/m 19,3 km/h (3 Bft) 97,87 %
15.01.2019 22:58 6,4 C 6,1 C 5,6 C 90 % 1014,1 hPa 0,0 l/m 0 min 0 min 0 W/m 9,7 km/h (2 Bft) 100,00 %
15.01.2019 23:00 6,4 C 6,1 C 5,6 C 90 % 1014,1 hPa 0,0 l/m 0 min 0 min 0 W/m 9,7 km/h (2 Bft) 100,00 %
15.01.2019 23:02 6,4 C 6,1 C 5,6 C 90 % 1014,1 hPa 0,0 l/m 0 min 0 min 0 W/m 12,9 km/h (3 Bft) 100,00 %
15.01.2019 23:04 6,4 C 6,1 C 5,6 C 90 % 1014,1 hPa 0,0 l/m 0 min 0 min 0 W/m 16,1 km/h (3 Bft) 95,74 %
15.01.2019 23:06 6,4 C 6,1 C 5,6 C 90 % 1014,1 hPa 0,0 l/m 0 min 0 min 0 W/m 12,9 km/h (3 Bft) 100,00 %
15.01.2019 23:08 6,4 C 6,1 C 5,6 C 90 % 1014,1 hPa 0,0 l/m 0 min 0 min 0 W/m 25,7 km/h (4 Bft) 100,00 %
15.01.2019 23:10 6,4 C 6,1 C 5,6 C 90 % 1014,1 hPa 0,0 l/m 0 min 0 min 0 W/m 19,3 km/h (3 Bft) 100,00 %
15.01.2019 23:12 6,5 C 6,1 C 5,6 C 90 % 1014,1 hPa 0,0 l/m 0 min 0 min 0 W/m 16,1 km/h (3 Bft) 100,00 %
15.01.2019 23:14 6,5 C 6,1 C 5,6 C 90 % 1014,2 hPa 0,0 l/m 0 min 0 min 0 W/m 16,1 km/h (3 Bft) 100,00 %
15.01.2019 23:16 6,5 C 6,1 C 5,6 C 90 % 1014,1 hPa 0,0 l/m 0 min 0 min 0 W/m 16,1 km/h (3 Bft) 100,00 %
15.01.2019 23:18 6,5 C 6,1 C 5,6 C 90 % 1014,1 hPa 0,0 l/m 0 min 0 min 0 W/m 12,9 km/h (3 Bft) 100,00 %
15.01.2019 23:20 6,5 C 6,1 C 5,6 C 90 % 1014,1 hPa 0,0 l/m 0 min 0 min 0 W/m 12,9 km/h (3 Bft) 100,00 %
15.01.2019 23:22 6,5 C 6,1 C 5,6 C 90 % 1014,0 hPa 0,0 l/m 0 min 0 min 0 W/m 16,1 km/h (3 Bft) 100,00 %
15.01.2019 23:24 6,5 C 6,1 C 5,6 C 90 % 1014,0 hPa 0,0 l/m 0 min 0 min 0 W/m 22,5 km/h (4 Bft) 100,00 %
15.01.2019 23:26 6,5 C 6,1 C 5,6 C 90 % 1014,0 hPa 0,0 l/m 0 min 0 min 0 W/m 19,3 km/h (3 Bft) 100,00 %
15.01.2019 23:28 6,4 C 6,1 C 5,6 C 90 % 1014,1 hPa 0,0 l/m 0 min 0 min 0 W/m 19,3 km/h (3 Bft) 100,00 %
15.01.2019 23:30 6,4 C 6,1 C 5,6 C 90 % 1014,1 hPa 0,0 l/m 0 min 0 min 0 W/m 22,5 km/h (4 Bft) 100,00 %
15.01.2019 23:32 6,4 C 6,1 C 5,6 C 90 % 1014,0 hPa 0,0 l/m 0 min 0 min 0 W/m 16,1 km/h (3 Bft) 100,00 %
15.01.2019 23:34 6,5 C 6,1 C 5,6 C 90 % 1014,0 hPa 0,0 l/m 0 min 0 min 0 W/m 19,3 km/h (3 Bft) 100,00 %
15.01.2019 23:36 6,4 C 6,1 C 5,6 C 90 % 1014,0 hPa 0,0 l/m 0 min 0 min 0 W/m 16,1 km/h (3 Bft) 100,00 %
15.01.2019 23:38 6,4 C 6,1 C 5,6 C 90 % 1013,9 hPa 0,0 l/m 0 min 0 min 0 W/m 29,0 km/h (5 Bft) 100,00 %
15.01.2019 23:40 6,4 C 6,1 C 5,6 C 91 % 1013,9 hPa 0,0 l/m 0 min 0 min 0 W/m 16,1 km/h (3 Bft) 100,00 %
15.01.2019 23:42 6,4 C 6,1 C 5,6 C 91 % 1013,8 hPa 0,0 l/m 0 min 0 min 0 W/m 22,5 km/h (4 Bft) 100,00 %
15.01.2019 23:44 6,4 C 6,1 C 5,6 C 91 % 1013,7 hPa 0,0 l/m 0 min 0 min 0 W/m 19,3 km/h (3 Bft) 100,00 %
15.01.2019 23:46 6,4 C 6,1 C 5,6 C 91 % 1013,9 hPa 0,0 l/m 0 min 0 min 0 W/m 25,7 km/h (4 Bft) 100,00 %
15.01.2019 23:48 6,4 C 6,1 C 5,6 C 91 % 1013,8 hPa 0,0 l/m 0 min 0 min 0 W/m 22,5 km/h (4 Bft) 97,87 %
15.01.2019 23:50 6,4 C 6,1 C 5,6 C 91 % 1013,7 hPa 0,0 l/m 0 min 0 min 0 W/m 22,5 km/h (4 Bft) 100,00 %
15.01.2019 23:52 6,4 C 6,1 C 5,6 C 91 % 1013,7 hPa 0,0 l/m 0 min 0 min 0 W/m 19,3 km/h (3 Bft) 100,00 %
15.01.2019 23:54 6,4 C 6,1 C 5,6 C 91 % 1013,6 hPa 0,0 l/m 0 min 0 min 0 W/m 19,3 km/h (3 Bft) 97,87 %
15.01.2019 23:56 6,4 C 6,1 C 5,6 C 91 % 1013,7 hPa 0,0 l/m 0 min 0 min 0 W/m 22,5 km/h (4 Bft) 97,87 %
15.01.2019 23:58 6,4 C 6,1 C 5,6 C 91 % 1013,7 hPa 0,0 l/m 0 min 0 min 0 W/m 19,3 km/h (3 Bft) 100,00 %
_ Min-Zeit 02:46 00:00 00:00 13:56 23:54 - - - - 01:50 15:02
Minimum _ 0,9 C 0,6 C 0,0 C 84 % 1013,6 hPa - - - - 0,0 km/h (0 Bft) 85,11 %
_ Max-Zeit 13:38 13:28 12:04 03:36 02:58 03:14 09:04 07:16 10:32 13:50 00:08
Maximum _ 7,1 C 7,2 C 6,7 C 97 % 1018,8 hPa 0,2 l/m 2 min 2 min 165 W/m 35,4 km/h
O (5 Bft)
100,00 %
Durchschnitt _ 4,7 C 4,5 C 3,9 C 92 % 1016,3 hPa #0,2 l/m #46 min. #6 min. 66 W/m 13,2 km/h (3 Bft) 97,51 %
© 2019 W. Hausmann